Wetterdaten: Montag, 05.12.2022
Datum Zeit Temp. Aussen Temp. o. S. Temp +5cm Feuchte Auss Luftdruck Regen Sonnenschein Regendauer Solar Windben Empfang
05.12.2022 00:00 2,2 C 1,7 C -1,1 C 94 % 1017,1 hPa 0,0 l/m 0 min 0 min 0 W/m 6,4 km/h (2 Bft) 97,87 %
05.12.2022 00:02 2,2 C 1,7 C -1,1 C 94 % 1017,1 hPa 0,0 l/m 0 min 0 min 0 W/m 12,9 km/h (3 Bft) 95,12 %
05.12.2022 00:04 2,2 C 1,7 C -1,1 C 94 % 1017,1 hPa 0,0 l/m 0 min 0 min 0 W/m 3,2 km/h (1 Bft) 93,62 %
05.12.2022 00:08 2,2 C 1,7 C -1,1 C 94 % 1017,1 hPa 0,0 l/m 0 min 0 min 0 W/m 6,4 km/h (2 Bft) 95,74 %
05.12.2022 00:10 2,2 C 1,7 C -1,1 C 94 % 1017,1 hPa 0,0 l/m 0 min 0 min 0 W/m 6,4 km/h (2 Bft) 95,74 %
05.12.2022 00:12 2,2 C 1,7 C -1,1 C 94 % 1017,1 hPa 0,0 l/m 0 min 0 min 0 W/m 3,2 km/h (1 Bft) 93,62 %
05.12.2022 00:14 2,2 C 1,7 C -1,1 C 94 % 1017,2 hPa 0,0 l/m 0 min 0 min 0 W/m 3,2 km/h (1 Bft) 95,65 %
05.12.2022 00:16 2,3 C 1,7 C -1,1 C 94 % 1017,2 hPa 0,0 l/m 0 min 0 min 0 W/m 3,2 km/h (1 Bft) 95,74 %
05.12.2022 00:18 2,3 C 1,7 C -1,1 C 94 % 1017,2 hPa 0,0 l/m 0 min 0 min 0 W/m 6,4 km/h (2 Bft) 95,74 %
05.12.2022 00:20 2,3 C 1,7 C -1,1 C 95 % 1017,2 hPa 0,0 l/m 0 min 0 min 0 W/m 3,2 km/h (1 Bft) 97,87 %
05.12.2022 00:22 2,3 C 1,7 C -1,1 C 95 % 1017,3 hPa 0,0 l/m 0 min 0 min 0 W/m 3,2 km/h (1 Bft) 95,74 %
05.12.2022 00:24 2,3 C 1,7 C -1,1 C 95 % 1017,3 hPa 0,0 l/m 0 min 0 min 0 W/m 3,2 km/h (1 Bft) 95,74 %
05.12.2022 00:26 2,3 C 1,7 C -1,1 C 95 % 1017,3 hPa 0,0 l/m 0 min 0 min 0 W/m 3,2 km/h (1 Bft) 95,65 %
05.12.2022 00:28 2,3 C 1,7 C -1,1 C 95 % 1017,3 hPa 0,0 l/m 0 min 0 min 0 W/m 6,4 km/h (2 Bft) 93,62 %
05.12.2022 00:30 2,3 C 1,7 C -1,1 C 95 % 1017,3 hPa 0,0 l/m 0 min 0 min 0 W/m 6,4 km/h (2 Bft) 93,62 %
05.12.2022 00:32 2,3 C 1,7 C -1,1 C 95 % 1017,3 hPa 0,0 l/m 0 min 0 min 0 W/m 6,4 km/h (2 Bft) 95,74 %
05.12.2022 00:34 2,3 C 1,7 C -1,1 C 95 % 1017,2 hPa 0,0 l/m 0 min 0 min 0 W/m 3,2 km/h (1 Bft) 93,62 %
05.12.2022 00:36 2,3 C 1,7 C -1,1 C 95 % 1017,2 hPa 0,0 l/m 0 min 0 min 0 W/m 6,4 km/h (2 Bft) 95,74 %
05.12.2022 00:38 2,3 C 1,7 C -1,1 C 95 % 1017,2 hPa 0,0 l/m 0 min 0 min 0 W/m 6,4 km/h (2 Bft) 97,83 %
05.12.2022 00:40 2,3 C 1,7 C -1,1 C 95 % 1017,2 hPa 0,0 l/m 0 min 0 min 0 W/m 6,4 km/h (2 Bft) 97,87 %
05.12.2022 00:42 2,3 C 1,7 C -1,1 C 95 % 1017,1 hPa 0,0 l/m 0 min 0 min 0 W/m 6,4 km/h (2 Bft) 97,87 %
05.12.2022 00:44 2,3 C 1,7 C -1,1 C 95 % 1017,1 hPa 0,0 l/m 0 min 0 min 0 W/m 3,2 km/h (1 Bft) 97,87 %
05.12.2022 00:46 2,3 C 1,7 C -1,1 C 95 % 1017,2 hPa 0,0 l/m 0 min 0 min 0 W/m 3,2 km/h (1 Bft) 91,49 %
05.12.2022 00:48 2,3 C 1,7 C -1,1 C 95 % 1017,1 hPa 0,0 l/m 0 min 0 min 0 W/m 9,7 km/h (2 Bft) 97,87 %
05.12.2022 00:50 2,3 C 1,7 C -1,1 C 95 % 1017,0 hPa 0,0 l/m 0 min 0 min 0 W/m 6,4 km/h (2 Bft) 100,00 %
05.12.2022 00:52 2,3 C 1,7 C -1,1 C 95 % 1017,1 hPa 0,0 l/m 0 min 0 min 0 W/m 6,4 km/h (2 Bft) 100,00 %
05.12.2022 00:54 2,2 C 1,7 C -1,1 C 95 % 1017,1 hPa 0,0 l/m 0 min 0 min 0 W/m 6,4 km/h (2 Bft) 100,00 %
05.12.2022 00:56 2,3 C 1,7 C -1,1 C 95 % 1017,1 hPa 0,0 l/m 0 min 0 min 0 W/m 6,4 km/h (2 Bft) 100,00 %
05.12.2022 00:58 2,2 C 1,7 C -1,1 C 95 % 1017,1 hPa 0,0 l/m 0 min 0 min 0 W/m 3,2 km/h (1 Bft) 95,74 %
05.12.2022 01:00 2,2 C 1,7 C -1,1 C 95 % 1017,1 hPa 0,0 l/m 0 min 0 min 0 W/m 3,2 km/h (1 Bft) 100,00 %
05.12.2022 01:02 2,2 C 1,7 C -1,1 C 95 % 1017,1 hPa 0,0 l/m 0 min 0 min 0 W/m 6,4 km/h (2 Bft) 97,83 %
05.12.2022 01:04 2,2 C 1,7 C -1,1 C 95 % 1017,1 hPa 0,0 l/m 0 min 0 min 0 W/m 6,4 km/h (2 Bft) 100,00 %
05.12.2022 01:06 2,2 C 1,7 C -1,1 C 95 % 1017,1 hPa 0,0 l/m 0 min 0 min 0 W/m 9,7 km/h (2 Bft) 97,87 %
05.12.2022 01:08 2,3 C 1,7 C -1,1 C 95 % 1017,1 hPa 0,0 l/m 0 min 0 min 0 W/m 3,2 km/h (1 Bft) 100,00 %
05.12.2022 01:10 2,3 C 1,7 C -1,1 C 95 % 1017,1 hPa 0,0 l/m 0 min 0 min 0 W/m 6,4 km/h (2 Bft) 100,00 %
05.12.2022 01:12 2,2 C 1,7 C -1,1 C 95 % 1017,1 hPa 0,0 l/m 0 min 0 min 0 W/m 9,7 km/h (2 Bft) 97,87 %
05.12.2022 01:14 2,2 C 1,7 C -1,1 C 95 % 1017,2 hPa 0,0 l/m 0 min 0 min 0 W/m 6,4 km/h (2 Bft) 100,00 %
05.12.2022 01:16 2,3 C 1,7 C -1,1 C 95 % 1017,1 hPa 0,0 l/m 0 min 0 min 0 W/m 3,2 km/h (1 Bft) 97,87 %
05.12.2022 01:18 2,2 C 1,7 C -1,1 C 95 % 1017,1 hPa 0,0 l/m 0 min 0 min 0 W/m 6,4 km/h (2 Bft) 100,00 %
05.12.2022 01:20 2,2 C 1,7 C -1,1 C 95 % 1017,1 hPa 0,0 l/m 0 min 0 min 0 W/m 6,4 km/h (2 Bft) 100,00 %
05.12.2022 01:22 2,2 C 1,7 C -1,1 C 95 % 1017,2 hPa 0,0 l/m 0 min 0 min 0 W/m 6,4 km/h (2 Bft) 95,74 %
05.12.2022 01:24 2,2 C 1,7 C -1,1 C 95 % 1017,2 hPa 0,0 l/m 0 min 0 min 0 W/m 6,4 km/h (2 Bft) 97,87 %
05.12.2022 01:26 2,2 C 1,7 C -1,1 C 95 % 1017,2 hPa 0,0 l/m 0 min 0 min 0 W/m 6,4 km/h (2 Bft) 97,83 %
05.12.2022 01:28 2,2 C 1,7 C -1,1 C 95 % 1017,1 hPa 0,0 l/m 0 min 0 min 0 W/m 3,2 km/h (1 Bft) 95,74 %
05.12.2022 01:30 2,2 C 1,7 C -0,6 C 95 % 1017,2 hPa 0,0 l/m 0 min 0 min 0 W/m 12,9 km/h (3 Bft) 97,87 %
05.12.2022 01:32 2,2 C 1,7 C -1,1 C 95 % 1017,2 hPa 0,0 l/m 0 min 0 min 0 W/m 9,7 km/h (2 Bft) 93,62 %
05.12.2022 01:34 2,2 C 1,7 C -0,6 C 95 % 1017,2 hPa 0,0 l/m 0 min 0 min 0 W/m 6,4 km/h (2 Bft) 97,87 %
05.12.2022 01:36 2,2 C 1,7 C -0,6 C 95 % 1017,2 hPa 0,0 l/m 0 min 0 min 0 W/m 12,9 km/h (3 Bft) 97,87 %
05.12.2022 01:38 2,2 C 1,7 C -0,6 C 95 % 1017,2 hPa 0,0 l/m 0 min 0 min 0 W/m 6,4 km/h (2 Bft) 95,65 %
05.12.2022 01:40 2,2 C 1,7 C -0,6 C 95 % 1017,2 hPa 0,0 l/m 0 min 0 min 0 W/m 9,7 km/h (2 Bft) 97,87 %
05.12.2022 01:42 2,2 C 1,7 C -0,6 C 95 % 1017,1 hPa 0,0 l/m 0 min 0 min 0 W/m 6,4 km/h (2 Bft) 97,87 %
05.12.2022 01:44 2,2 C 1,7 C -0,6 C 95 % 1017,2 hPa 0,0 l/m 0 min 0 min 0 W/m 9,7 km/h (2 Bft) 95,74 %
05.12.2022 01:46 2,2 C 1,7 C -0,6 C 95 % 1017,1 hPa 0,0 l/m 0 min 0 min 0 W/m 6,4 km/h (2 Bft) 95,74 %
05.12.2022 01:48 2,2 C 1,7 C -0,6 C 95 % 1017,1 hPa 0,0 l/m 0 min 0 min 0 W/m 6,4 km/h (2 Bft) 95,74 %
05.12.2022 01:50 2,2 C 1,7 C -0,6 C 95 % 1017,0 hPa 0,0 l/m 0 min 0 min 0 W/m 6,4 km/h (2 Bft) 97,83 %
05.12.2022 01:52 2,2 C 1,7 C -0,6 C 95 % 1017,1 hPa 0,0 l/m 0 min 0 min 0 W/m 6,4 km/h (2 Bft) 95,74 %
05.12.2022 01:54 2,2 C 1,7 C -0,6 C 95 % 1017,1 hPa 0,0 l/m 0 min 0 min 0 W/m 6,4 km/h (2 Bft) 97,87 %
05.12.2022 01:56 2,2 C 1,7 C -0,6 C 95 % 1017,1 hPa 0,0 l/m 0 min 0 min 0 W/m 6,4 km/h (2 Bft) 97,87 %
05.12.2022 01:58 2,3 C 1,7 C -0,6 C 95 % 1017,1 hPa 0,0 l/m 0 min 0 min 0 W/m 6,4 km/h (2 Bft) 95,74 %
05.12.2022 02:00 2,2 C 1,7 C -0,6 C 95 % 1017,1 hPa 0,0 l/m 0 min 0 min 0 W/m 9,7 km/h (2 Bft) 95,74 %
05.12.2022 02:02 2,3 C 1,7 C -0,6 C 95 % 1017,1 hPa 0,0 l/m 0 min 0 min 0 W/m 9,7 km/h (2 Bft) 93,48 %
05.12.2022 02:04 2,3 C 1,7 C -0,6 C 95 % 1017,1 hPa 0,0 l/m 0 min 0 min 0 W/m 9,7 km/h (2 Bft) 95,74 %
05.12.2022 02:06 2,3 C 1,7 C -0,6 C 95 % 1017,1 hPa 0,0 l/m 0 min 0 min 0 W/m 6,4 km/h (2 Bft) 97,87 %
05.12.2022 02:08 2,2 C 1,7 C -0,6 C 95 % 1017,1 hPa 0,0 l/m 0 min 0 min 0 W/m 3,2 km/h (1 Bft) 95,74 %
05.12.2022 02:10 2,3 C 1,7 C -0,6 C 95 % 1017,1 hPa 0,0 l/m 0 min 0 min 0 W/m 9,7 km/h (2 Bft) 95,74 %
05.12.2022 02:12 2,3 C 1,7 C -0,6 C 95 % 1017,1 hPa 0,0 l/m 0 min 0 min 0 W/m 6,4 km/h (2 Bft) 97,87 %
05.12.2022 02:14 2,3 C 1,7 C -0,6 C 95 % 1017,0 hPa 0,0 l/m 0 min 0 min 0 W/m 3,2 km/h (1 Bft) 97,83 %
05.12.2022 02:16 2,3 C 1,7 C -0,6 C 95 % 1017,0 hPa 0,0 l/m 0 min 0 min 0 W/m 6,4 km/h (2 Bft) 97,87 %
05.12.2022 02:18 2,3 C 1,7 C -0,6 C 95 % 1017,0 hPa 0,0 l/m 0 min 0 min 0 W/m 9,7 km/h (2 Bft) 97,87 %
05.12.2022 02:20 2,3 C 1,7 C -0,6 C 95 % 1017,0 hPa 0,0 l/m 0 min 0 min 0 W/m 9,7 km/h (2 Bft) 97,87 %
05.12.2022 02:22 2,3 C 1,7 C -0,6 C 95 % 1017,0 hPa 0,0 l/m 0 min 0 min 0 W/m 3,2 km/h (1 Bft) 97,87 %
05.12.2022 02:24 2,3 C 1,7 C -0,6 C 95 % 1017,1 hPa 0,0 l/m 0 min 0 min 0 W/m 6,4 km/h (2 Bft) 97,87 %
05.12.2022 02:26 2,3 C 1,7 C -0,6 C 95 % 1017,0 hPa 0,0 l/m 0 min 0 min 0 W/m 6,4 km/h (2 Bft) 97,83 %
05.12.2022 02:28 2,3 C 1,7 C -0,6 C 95 % 1017,0 hPa 0,0 l/m 0 min 0 min 0 W/m 3,2 km/h (1 Bft) 97,87 %
05.12.2022 02:30 2,3 C 1,7 C -0,6 C 95 % 1017,0 hPa 0,0 l/m 0 min 0 min 0 W/m 6,4 km/h (2 Bft) 97,87 %
05.12.2022 02:32 2,3 C 1,7 C -0,6 C 95 % 1017,0 hPa 0,0 l/m 0 min 0 min 0 W/m 3,2 km/h (1 Bft) 100,00 %
05.12.2022 02:34 2,3 C 1,7 C -0,6 C 95 % 1017,1 hPa 0,0 l/m 0 min 0 min 0 W/m 3,2 km/h (1 Bft) 100,00 %
05.12.2022 02:36 2,3 C 1,7 C -0,6 C 95 % 1017,1 hPa 0,0 l/m 0 min 0 min 0 W/m 3,2 km/h (1 Bft) 100,00 %
05.12.2022 02:38 2,3 C 1,7 C -0,6 C 95 % 1017,1 hPa 0,0 l/m 0 min 0 min 0 W/m 3,2 km/h (1 Bft) 100,00 %
05.12.2022 02:40 2,3 C 1,7 C -0,6 C 95 % 1017,1 hPa 0,0 l/m 0 min 0 min 0 W/m 6,4 km/h (2 Bft) 97,87 %
05.12.2022 02:42 2,3 C 1,7 C -0,6 C 95 % 1017,1 hPa 0,0 l/m 0 min 0 min 0 W/m 6,4 km/h (2 Bft) 100,00 %
05.12.2022 02:44 2,3 C 1,7 C -0,6 C 95 % 1017,1 hPa 0,0 l/m 0 min 0 min 0 W/m 6,4 km/h (2 Bft) 100,00 %
05.12.2022 02:46 2,3 C 1,7 C -0,6 C 95 % 1017,1 hPa 0,0 l/m 0 min 0 min 0 W/m 9,7 km/h (2 Bft) 100,00 %
05.12.2022 02:48 2,3 C 1,7 C -0,6 C 95 % 1017,2 hPa 0,0 l/m 0 min 0 min 0 W/m 6,4 km/h (2 Bft) 100,00 %
05.12.2022 02:50 2,3 C 1,7 C -0,6 C 95 % 1017,2 hPa 0,0 l/m 0 min 0 min 0 W/m 9,7 km/h (2 Bft) 100,00 %
05.12.2022 02:52 2,3 C 1,7 C -0,6 C 95 % 1017,3 hPa 0,0 l/m 0 min 0 min 0 W/m 3,2 km/h (1 Bft) 100,00 %
05.12.2022 02:54 2,3 C 1,7 C -0,6 C 95 % 1017,2 hPa 0,0 l/m 0 min 0 min 0 W/m 6,4 km/h (2 Bft) 100,00 %
05.12.2022 02:56 2,3 C 1,7 C -0,6 C 95 % 1017,3 hPa 0,0 l/m 0 min 0 min 0 W/m 6,4 km/h (2 Bft) 100,00 %
05.12.2022 02:58 2,3 C 1,7 C -0,6 C 95 % 1017,3 hPa 0,0 l/m 0 min 0 min 0 W/m 3,2 km/h (1 Bft) 100,00 %
05.12.2022 03:00 2,3 C 1,7 C -0,6 C 95 % 1017,3 hPa 0,0 l/m 0 min 0 min 0 W/m 6,4 km/h (2 Bft) 100,00 %
05.12.2022 03:02 2,3 C 1,7 C -0,6 C 95 % 1017,2 hPa 0,0 l/m 0 min 0 min 0 W/m 6,4 km/h (2 Bft) 89,13 %
05.12.2022 03:04 2,3 C 1,7 C -0,6 C 95 % 1017,3 hPa 0,0 l/m 0 min 0 min 0 W/m 3,2 km/h (1 Bft) 93,62 %
05.12.2022 03:06 2,3 C 1,7 C -0,6 C 95 % 1017,3 hPa 0,0 l/m 0 min 0 min 0 W/m 3,2 km/h (1 Bft) 95,74 %
05.12.2022 03:08 2,3 C 1,7 C -0,6 C 95 % 1017,2 hPa 0,0 l/m 0 min 0 min 0 W/m 6,4 km/h (2 Bft) 97,87 %
05.12.2022 03:10 2,3 C 1,7 C -0,6 C 95 % 1017,3 hPa 0,0 l/m 0 min 0 min 0 W/m 6,4 km/h (2 Bft) 97,87 %
05.12.2022 03:12 2,3 C 1,7 C -0,6 C 95 % 1017,3 hPa 0,0 l/m 0 min 0 min 0 W/m 6,4 km/h (2 Bft) 93,48 %
05.12.2022 03:14 2,3 C 1,7 C -0,6 C 95 % 1017,3 hPa 0,0 l/m 0 min 0 min 0 W/m 6,4 km/h (2 Bft) 97,87 %
05.12.2022 03:16 2,3 C 1,7 C -0,6 C 95 % 1017,3 hPa 0,0 l/m 0 min 0 min 0 W/m 3,2 km/h (1 Bft) 97,87 %
05.12.2022 03:18 2,3 C 1,7 C -0,6 C 95 % 1017,3 hPa 0,0 l/m 0 min 0 min 0 W/m 6,4 km/h (2 Bft) 97,87 %
05.12.2022 03:20 2,3 C 1,7 C -0,6 C 95 % 1017,3 hPa 0,0 l/m 0 min 0 min 0 W/m 6,4 km/h (2 Bft) 97,87 %
05.12.2022 03:22 2,3 C 1,7 C -0,6 C 95 % 1017,3 hPa 0,0 l/m 0 min 0 min 0 W/m 3,2 km/h (1 Bft) 95,74 %
05.12.2022 03:24 2,3 C 1,7 C -0,6 C 95 % 1017,3 hPa 0,0 l/m 0 min 0 min 0 W/m 3,2 km/h (1 Bft) 97,83 %
05.12.2022 03:26 2,3 C 1,7 C -0,6 C 95 % 1017,3 hPa 0,0 l/m 0 min 0 min 0 W/m 9,7 km/h (2 Bft) 97,87 %
05.12.2022 03:28 2,3 C 1,7 C -0,6 C 95 % 1017,3 hPa 0,0 l/m 0 min 0 min 0 W/m 9,7 km/h (2 Bft) 97,87 %
05.12.2022 03:30 2,3 C 1,7 C -0,6 C 95 % 1017,3 hPa 0,0 l/m 0 min 0 min 0 W/m 9,7 km/h (2 Bft) 95,74 %
05.12.2022 03:32 2,3 C 1,7 C -0,6 C 95 % 1017,3 hPa 0,0 l/m 0 min 0 min 0 W/m 6,4 km/h (2 Bft) 97,87 %
05.12.2022 03:34 2,3 C 1,7 C -0,6 C 95 % 1017,3 hPa 0,0 l/m 0 min 0 min 0 W/m 6,4 km/h (2 Bft) 93,62 %
05.12.2022 03:36 2,3 C 1,7 C -0,6 C 95 % 1017,2 hPa 0,0 l/m 0 min 0 min 0 W/m 9,7 km/h (2 Bft) 97,83 %
05.12.2022 03:38 2,3 C 1,7 C -0,6 C 95 % 1017,2 hPa 0,0 l/m 0 min 0 min 0 W/m 3,2 km/h (1 Bft) 95,74 %
05.12.2022 03:40 2,3 C 1,7 C -0,6 C 95 % 1017,2 hPa 0,0 l/m 0 min 0 min 0 W/m 3,2 km/h (1 Bft) 93,62 %
05.12.2022 03:42 2,3 C 1,7 C -0,6 C 95 % 1017,3 hPa 0,0 l/m 0 min 0 min 0 W/m 9,7 km/h (2 Bft) 95,74 %
05.12.2022 03:44 2,3 C 1,7 C -0,6 C 95 % 1017,2 hPa 0,0 l/m 0 min 0 min 0 W/m 3,2 km/h (1 Bft) 100,00 %
05.12.2022 03:46 2,3 C 1,7 C -0,6 C 95 % 1017,3 hPa 0,0 l/m 0 min 0 min 0 W/m 3,2 km/h (1 Bft) 91,49 %
05.12.2022 03:48 2,3 C 1,7 C -0,6 C 95 % 1017,3 hPa 0,0 l/m 0 min 0 min 0 W/m 6,4 km/h (2 Bft) 93,48 %
05.12.2022 03:50 2,3 C 1,7 C -0,6 C 95 % 1017,2 hPa 0,0 l/m 0 min 0 min 0 W/m 3,2 km/h (1 Bft) 93,62 %
05.12.2022 03:52 2,3 C 1,7 C -0,6 C 95 % 1017,2 hPa 0,0 l/m 0 min 0 min 0 W/m 0,0 km/h (0 Bft) 93,62 %
05.12.2022 03:54 2,3 C 1,7 C -0,6 C 95 % 1017,2 hPa 0,0 l/m 0 min 0 min 0 W/m 12,9 km/h (3 Bft) 93,62 %
05.12.2022 03:56 2,3 C 1,7 C -0,6 C 95 % 1017,2 hPa 0,0 l/m 0 min 0 min 0 W/m 6,4 km/h (2 Bft) 91,49 %
05.12.2022 03:58 2,4 C 1,7 C -0,6 C 95 % 1017,2 hPa 0,0 l/m 0 min 0 min 0 W/m 0,0 km/h (0 Bft) 95,74 %
05.12.2022 04:00 2,4 C 1,7 C -0,6 C 95 % 1017,3 hPa 0,0 l/m 0 min 0 min 0 W/m 6,4 km/h (2 Bft) 95,65 %
05.12.2022 04:02 2,4 C 1,7 C -0,6 C 95 % 1017,2 hPa 0,0 l/m 0 min 0 min 0 W/m 6,4 km/h (2 Bft) 100,00 %
05.12.2022 04:04 2,4 C 1,7 C -0,6 C 95 % 1017,3 hPa 0,0 l/m 0 min 0 min 0 W/m 6,4 km/h (2 Bft) 100,00 %
05.12.2022 04:06 2,4 C 1,7 C -0,6 C 95 % 1017,3 hPa 0,0 l/m 0 min 0 min 0 W/m 9,7 km/h (2 Bft) 97,87 %
05.12.2022 04:08 2,4 C 1,7 C -0,6 C 95 % 1017,3 hPa 0,0 l/m 0 min 0 min 0 W/m 0,0 km/h (0 Bft) 100,00 %
05.12.2022 04:10 2,4 C 1,7 C -0,6 C 95 % 1017,3 hPa 0,0 l/m 0 min 0 min 0 W/m 9,7 km/h (2 Bft) 95,74 %
05.12.2022 04:12 2,4 C 2,2 C -0,6 C 95 % 1017,3 hPa 0,0 l/m 0 min 0 min 0 W/m 6,4 km/h (2 Bft) 95,65 %
05.12.2022 04:14 2,4 C 2,2 C -0,6 C 95 % 1017,3 hPa 0,0 l/m 0 min 0 min 0 W/m 6,4 km/h (2 Bft) 95,74 %
05.12.2022 04:16 2,4 C 2,2 C -0,6 C 95 % 1017,3 hPa 0,0 l/m 0 min 0 min 0 W/m 3,2 km/h (1 Bft) 95,74 %
05.12.2022 04:18 2,4 C 2,2 C -0,6 C 95 % 1017,3 hPa 0,0 l/m 0 min 0 min 0 W/m 9,7 km/h (2 Bft) 95,74 %
05.12.2022 04:20 2,4 C 2,2 C -0,6 C 95 % 1017,3 hPa 0,0 l/m 0 min 0 min 0 W/m 6,4 km/h (2 Bft) 97,87 %
05.12.2022 04:22 2,4 C 2,2 C -0,6 C 95 % 1017,4 hPa 0,0 l/m 0 min 0 min 0 W/m 9,7 km/h (2 Bft) 95,74 %
05.12.2022 04:24 2,4 C 2,2 C -0,6 C 95 % 1017,4 hPa 0,0 l/m 0 min 0 min 0 W/m 12,9 km/h (3 Bft) 97,83 %
05.12.2022 04:26 2,4 C 2,2 C -0,6 C 95 % 1017,3 hPa 0,0 l/m 0 min 0 min 0 W/m 9,7 km/h (2 Bft) 95,74 %
05.12.2022 04:28 2,4 C 2,2 C -0,6 C 95 % 1017,3 hPa 0,0 l/m 0 min 0 min 0 W/m 6,4 km/h (2 Bft) 95,74 %
05.12.2022 04:30 2,4 C 2,2 C -0,6 C 95 % 1017,4 hPa 0,0 l/m 0 min 0 min 0 W/m 9,7 km/h (2 Bft) 95,74 %
05.12.2022 04:32 2,4 C 2,2 C -0,6 C 95 % 1017,4 hPa 0,0 l/m 0 min 0 min 0 W/m 6,4 km/h (2 Bft) 95,74 %
05.12.2022 04:34 2,4 C 2,2 C -0,6 C 95 % 1017,4 hPa 0,0 l/m 0 min 0 min 0 W/m 9,7 km/h (2 Bft) 100,00 %
05.12.2022 04:36 2,4 C 2,2 C -0,6 C 95 % 1017,4 hPa 0,0 l/m 0 min 0 min 0 W/m 9,7 km/h (2 Bft) 100,00 %
05.12.2022 04:38 2,4 C 2,2 C -0,6 C 95 % 1017,4 hPa 0,0 l/m 0 min 0 min 0 W/m 6,4 km/h (2 Bft) 100,00 %
05.12.2022 04:40 2,4 C 2,2 C -0,6 C 95 % 1017,4 hPa 0,0 l/m 0 min 0 min 0 W/m 9,7 km/h (2 Bft) 100,00 %
05.12.2022 04:42 2,4 C 2,2 C -0,6 C 95 % 1017,4 hPa 0,0 l/m 0 min 0 min 0 W/m 6,4 km/h (2 Bft) 97,87 %
05.12.2022 04:44 2,4 C 2,2 C -0,6 C 95 % 1017,4 hPa 0,0 l/m 0 min 0 min 0 W/m 3,2 km/h (1 Bft) 100,00 %
05.12.2022 04:46 2,4 C 2,2 C -0,6 C 95 % 1017,4 hPa 0,0 l/m 0 min 0 min 0 W/m 0,0 km/h (0 Bft) 100,00 %
05.12.2022 04:48 2,4 C 2,2 C -0,6 C 95 % 1017,4 hPa 0,0 l/m 0 min 0 min 0 W/m 0,0 km/h (0 Bft) 97,83 %
05.12.2022 04:50 2,4 C 2,2 C -0,6 C 95 % 1017,3 hPa 0,0 l/m 0 min 0 min 0 W/m 0,0 km/h (0 Bft) 97,87 %
05.12.2022 04:52 2,4 C 2,2 C -0,6 C 95 % 1017,4 hPa 0,0 l/m 0 min 0 min 0 W/m 0,0 km/h (0 Bft) 100,00 %
05.12.2022 04:54 2,4 C 2,2 C -0,6 C 95 % 1017,4 hPa 0,0 l/m 0 min 0 min 0 W/m 0,0 km/h (0 Bft) 100,00 %
05.12.2022 04:56 2,4 C 2,2 C -0,6 C 95 % 1017,4 hPa 0,0 l/m 0 min 0 min 0 W/m 6,4 km/h (2 Bft) 100,00 %
05.12.2022 04:58 2,4 C 2,2 C -0,6 C 95 % 1017,4 hPa 0,0 l/m 0 min 0 min 0 W/m 3,2 km/h (1 Bft) 100,00 %
05.12.2022 05:00 2,4 C 2,2 C -0,6 C 95 % 1017,4 hPa 0,0 l/m 0 min 0 min 0 W/m 6,4 km/h (2 Bft) 97,87 %
05.12.2022 05:02 2,4 C 2,2 C -0,6 C 95 % 1017,4 hPa 0,0 l/m 0 min 0 min 0 W/m 6,4 km/h (2 Bft) 97,87 %
05.12.2022 05:04 2,4 C 2,2 C -0,6 C 95 % 1017,5 hPa 0,0 l/m 0 min 0 min 0 W/m 3,2 km/h (1 Bft) 100,00 %
05.12.2022 05:06 2,4 C 2,2 C -0,6 C 95 % 1017,5 hPa 0,0 l/m 0 min 0 min 0 W/m 6,4 km/h (2 Bft) 100,00 %
05.12.2022 05:08 2,4 C 2,2 C -0,6 C 95 % 1017,5 hPa 0,0 l/m 0 min 0 min 0 W/m 3,2 km/h (1 Bft) 97,14 %
05.12.2022 05:10 2,4 C 2,2 C -0,6 C 95 % 1017,5 hPa 0,0 l/m 0 min 0 min 0 W/m 0,0 km/h (0 Bft) 100,00 %
05.12.2022 05:12 2,4 C 2,2 C -0,6 C 95 % 1017,5 hPa 0,0 l/m 0 min 0 min 0 W/m 0,0 km/h (0 Bft) 100,00 %
05.12.2022 05:14 2,5 C 2,2 C -0,6 C 95 % 1017,5 hPa 0,0 l/m 0 min 0 min 0 W/m 0,0 km/h (0 Bft) 100,00 %
05.12.2022 05:16 2,5 C 2,2 C -0,6 C 95 % 1017,5 hPa 0,0 l/m 0 min 0 min 0 W/m 0,0 km/h (0 Bft) 100,00 %
05.12.2022 05:18 2,4 C 2,2 C -0,6 C 95 % 1017,5 hPa 0,0 l/m 0 min 0 min 0 W/m 0,0 km/h (0 Bft) 100,00 %
05.12.2022 05:20 2,5 C 2,2 C -0,6 C 95 % 1017,5 hPa 0,0 l/m 0 min 0 min 0 W/m 0,0 km/h (0 Bft) 97,83 %
05.12.2022 05:22 2,5 C 2,2 C -0,6 C 95 % 1017,5 hPa 0,0 l/m 0 min 0 min 0 W/m 0,0 km/h (0 Bft) 100,00 %
05.12.2022 05:24 2,5 C 2,2 C -0,6 C 95 % 1017,5 hPa 0,0 l/m 0 min 0 min 0 W/m 0,0 km/h (0 Bft) 100,00 %
05.12.2022 05:26 2,4 C 2,2 C -0,6 C 95 % 1017,5 hPa 0,0 l/m 0 min 0 min 0 W/m 0,0 km/h (0 Bft) 100,00 %
05.12.2022 05:28 2,5 C 2,2 C -0,6 C 95 % 1017,5 hPa 0,0 l/m 0 min 0 min 0 W/m 0,0 km/h (0 Bft) 97,87 %
05.12.2022 05:30 2,4 C 2,2 C -0,6 C 95 % 1017,5 hPa 0,0 l/m 0 min 0 min 0 W/m 3,2 km/h (1 Bft) 100,00 %
05.12.2022 05:32 2,4 C 1,7 C -0,6 C 95 % 1017,5 hPa 0,0 l/m 0 min 0 min 0 W/m 3,2 km/h (1 Bft) 100,00 %
05.12.2022 05:34 2,5 C 1,7 C -0,6 C 95 % 1017,5 hPa 0,0 l/m 0 min 0 min 0 W/m 3,2 km/h (1 Bft) 95,74 %
05.12.2022 05:36 2,5 C 1,7 C -0,6 C 95 % 1017,5 hPa 0,0 l/m 0 min 0 min 0 W/m 3,2 km/h (1 Bft) 97,87 %
05.12.2022 05:38 2,5 C 1,7 C -0,6 C 95 % 1017,5 hPa 0,0 l/m 0 min 0 min 0 W/m 3,2 km/h (1 Bft) 100,00 %
05.12.2022 05:40 2,4 C 1,7 C -0,6 C 95 % 1017,5 hPa 0,0 l/m 0 min 0 min 0 W/m 3,2 km/h (1 Bft) 100,00 %
05.12.2022 05:42 2,4 C 1,7 C -0,6 C 95 % 1017,5 hPa 0,0 l/m 0 min 0 min 0 W/m 6,4 km/h (2 Bft) 97,87 %
05.12.2022 05:44 2,4 C 1,7 C -0,6 C 95 % 1017,5 hPa 0,0 l/m 0 min 0 min 0 W/m 3,2 km/h (1 Bft) 97,83 %
05.12.2022 05:46 2,4 C 1,7 C -0,6 C 95 % 1017,5 hPa 0,0 l/m 0 min 0 min 0 W/m 6,4 km/h (2 Bft) 97,87 %
05.12.2022 05:48 2,4 C 1,7 C -0,6 C 95 % 1017,5 hPa 0,0 l/m 0 min 2 min 0 W/m 3,2 km/h (1 Bft) 97,87 %
05.12.2022 05:50 2,4 C 1,7 C -0,6 C 95 % 1017,5 hPa 0,0 l/m 0 min 2 min 0 W/m 3,2 km/h (1 Bft) 97,87 %
05.12.2022 05:52 2,4 C 1,7 C -0,6 C 95 % 1017,5 hPa 0,0 l/m 0 min 2 min 0 W/m 0,0 km/h (0 Bft) 97,87 %
05.12.2022 05:54 2,4 C 1,7 C -0,6 C 95 % 1017,6 hPa 0,0 l/m 0 min 2 min 0 W/m 0,0 km/h (0 Bft) 97,87 %
05.12.2022 05:55 2,4 C 1,7 C -0,6 C 95 % 1017,6 hPa 0,0 l/m 0 min 1 min 0 W/m 0,0 km/h (0 Bft) 100,00 %
05.12.2022 06:00 2,4 C 1,7 C -0,6 C 95 % 1017,7 hPa 0,0 l/m 0 min 5 min 0 W/m 0,0 km/h (0 Bft) 94,87 %
05.12.2022 06:02 2,4 C 1,7 C -0,6 C 95 % 1017,6 hPa 0,0 l/m 0 min 2 min 0 W/m 0,0 km/h (0 Bft) 97,87 %
05.12.2022 06:04 2,4 C 1,7 C -0,6 C 95 % 1017,6 hPa 0,0 l/m 0 min 2 min 0 W/m 0,0 km/h (0 Bft) 95,74 %
05.12.2022 06:08 2,4 C 1,7 C -0,6 C 95 % 1017,6 hPa 0,0 l/m 0 min 4 min 0 W/m 0,0 km/h (0 Bft) 93,90 %
05.12.2022 06:10 2,4 C 1,7 C -0,6 C 95 % 1017,6 hPa 0,0 l/m 0 min 2 min 0 W/m 0,0 km/h (0 Bft) 93,62 %
05.12.2022 06:12 2,4 C 1,7 C -0,6 C 95 % 1017,6 hPa 0,0 l/m 0 min 2 min 0 W/m 0,0 km/h (0 Bft) 95,74 %
05.12.2022 06:14 2,4 C 1,7 C -1,1 C 95 % 1017,7 hPa 0,0 l/m 0 min 2 min 0 W/m 0,0 km/h (0 Bft) 95,65 %
05.12.2022 06:16 2,4 C 1,7 C -1,1 C 95 % 1017,6 hPa 0,0 l/m 0 min 2 min 0 W/m 0,0 km/h (0 Bft) 95,74 %
05.12.2022 06:18 2,4 C 1,7 C -1,1 C 95 % 1017,7 hPa 0,0 l/m 0 min 2 min 0 W/m 0,0 km/h (0 Bft) 97,87 %
05.12.2022 06:20 2,4 C 1,7 C -1,1 C 95 % 1017,7 hPa 0,2 l/m 0 min 2 min 0 W/m 0,0 km/h (0 Bft) 93,62 %
05.12.2022 06:22 2,4 C 1,7 C -1,1 C 95 % 1017,7 hPa 0,0 l/m 0 min 2 min 0 W/m 0,0 km/h (0 Bft) 91,49 %
05.12.2022 06:24 2,4 C 1,7 C -1,1 C 95 % 1017,7 hPa 0,0 l/m 0 min 2 min 0 W/m 0,0 km/h (0 Bft) 93,62 %
05.12.2022 06:26 2,4 C 1,7 C -1,1 C 95 % 1017,7 hPa 0,0 l/m 0 min 2 min 0 W/m 0,0 km/h (0 Bft) 97,83 %
05.12.2022 06:28 2,4 C 1,7 C -1,1 C 95 % 1017,7 hPa 0,0 l/m 0 min 2 min 0 W/m 0,0 km/h (0 Bft) 50,00 %
05.12.2022 06:30 2,4 C 1,7 C -1,1 C 95 % 1017,7 hPa 0,0 l/m 0 min 2 min 0 W/m 0,0 km/h (0 Bft) 93,62 %
05.12.2022 06:32 2,4 C 1,7 C -1,1 C 95 % 1017,7 hPa 0,0 l/m 0 min 2 min 0 W/m 0,0 km/h (0 Bft) 95,74 %
05.12.2022 06:34 2,4 C 1,7 C -1,1 C 95 % 1017,7 hPa 0,0 l/m 0 min 2 min 0 W/m 0,0 km/h (0 Bft) 95,74 %
05.12.2022 06:36 2,4 C 1,7 C -1,1 C 95 % 1017,7 hPa 0,0 l/m 0 min 2 min 0 W/m 0,0 km/h (0 Bft) 97,87 %
05.12.2022 06:38 2,4 C 1,7 C -1,1 C 95 % 1017,7 hPa 0,0 l/m 0 min 2 min 0 W/m 0,0 km/h (0 Bft) 93,48 %
05.12.2022 06:40 2,4 C 1,7 C -1,1 C 95 % 1017,8 hPa 0,0 l/m 0 min 2 min 0 W/m 0,0 km/h (0 Bft) 95,74 %
05.12.2022 06:42 2,4 C 1,7 C -0,6 C 95 % 1017,8 hPa 0,0 l/m 0 min 2 min 0 W/m 0,0 km/h (0 Bft) 95,74 %
05.12.2022 06:45 2,4 C 1,7 C -1,1 C 95 % 1017,8 hPa 0,0 l/m 0 min 3 min 0 W/m 0,0 km/h (0 Bft) 98,25 %
05.12.2022 06:52 2,4 C 1,7 C -0,6 C 95 % 1017,8 hPa 0,0 l/m 0 min 5 min 0 W/m 0,0 km/h (0 Bft) 96,00 %
05.12.2022 06:55 2,4 C 1,7 C -0,6 C 95 % 1017,8 hPa 0,0 l/m 0 min 3 min 0 W/m 0,0 km/h (0 Bft) 97,37 %
05.12.2022 07:00 2,4 C 1,7 C -0,6 C 95 % 1017,8 hPa 0,0 l/m 0 min 5 min 0 W/m 0,0 km/h (0 Bft) 100,00 %
05.12.2022 07:05 2,4 C 1,7 C -0,6 C 95 % 1017,9 hPa 0,2 l/m 0 min 5 min 0 W/m 0,0 km/h (0 Bft) 100,00 %
05.12.2022 07:10 2,4 C 1,7 C -0,6 C 95 % 1017,8 hPa 0,0 l/m 0 min 5 min 0 W/m 0,0 km/h (0 Bft) 100,00 %
05.12.2022 07:15 2,4 C 1,7 C -0,6 C 96 % 1017,9 hPa 0,0 l/m 0 min 5 min 0 W/m 0,0 km/h (0 Bft) 99,12 %
05.12.2022 07:20 2,4 C 1,7 C -0,6 C 96 % 1017,9 hPa 0,0 l/m 0 min 5 min 0 W/m 0,0 km/h (0 Bft) 100,00 %
05.12.2022 07:24 2,4 C 1,7 C -1,1 C 96 % 1017,9 hPa 0,0 l/m 0 min 4 min 0 W/m 0,0 km/h (0 Bft) 97,83 %
05.12.2022 07:26 2,4 C 1,7 C -1,1 C 96 % 1017,9 hPa 0,0 l/m 0 min 2 min 0 W/m 0,0 km/h (0 Bft) 97,87 %
05.12.2022 07:30 2,4 C 1,7 C -1,1 C 96 % 1018,0 hPa 0,0 l/m 0 min 4 min 0 W/m 0,0 km/h (0 Bft) 100,00 %
05.12.2022 07:35 2,4 C 1,7 C -1,1 C 96 % 1018,0 hPa 0,0 l/m 0 min 5 min 0 W/m 0,0 km/h (0 Bft) 100,00 %
05.12.2022 07:40 2,4 C 1,7 C -1,1 C 96 % 1018,0 hPa 0,2 l/m 0 min 5 min 0 W/m 0,0 km/h (0 Bft) 100,00 %
05.12.2022 07:45 2,4 C 1,7 C -0,6 C 96 % 1018,0 hPa 0,0 l/m 0 min 5 min 0 W/m 0,0 km/h (0 Bft) 98,25 %
05.12.2022 07:50 2,4 C 1,7 C -0,6 C 96 % 1018,2 hPa 0,0 l/m 0 min 5 min 0 W/m 0,0 km/h (0 Bft) 100,00 %
05.12.2022 07:55 2,4 C 1,7 C -0,6 C 96 % 1018,2 hPa 0,0 l/m 0 min 5 min 0 W/m 0,0 km/h (0 Bft) 100,00 %
05.12.2022 08:00 2,3 C 1,7 C -1,1 C 96 % 1018,2 hPa 0,2 l/m 0 min 5 min 0 W/m 0,0 km/h (0 Bft) 100,00 %
05.12.2022 08:02 2,3 C 1,7 C -1,1 C 96 % 1018,3 hPa 0,0 l/m 0 min 2 min 0 W/m 0,0 km/h (0 Bft) 100,00 %
05.12.2022 08:05 2,3 C 1,7 C -1,1 C 96 % 1018,2 hPa 0,0 l/m 0 min 3 min 0 W/m 0,0 km/h (0 Bft) 100,00 %
05.12.2022 08:10 2,3 C 1,7 C -1,1 C 96 % 1018,3 hPa 0,0 l/m 0 min 5 min 0 W/m 0,0 km/h (0 Bft) 100,00 %
05.12.2022 08:15 2,2 C 1,7 C -1,1 C 96 % 1018,4 hPa 0,0 l/m 0 min 5 min 0 W/m 0,0 km/h (0 Bft) 100,00 %
05.12.2022 08:20 2,2 C 1,7 C -1,1 C 96 % 1018,4 hPa 0,2 l/m 0 min 5 min 0 W/m 0,0 km/h (0 Bft) 100,00 %
05.12.2022 08:25 2,2 C 1,7 C -1,1 C 96 % 1018,5 hPa 0,0 l/m 0 min 5 min 0 W/m 0,0 km/h (0 Bft) 100,00 %
05.12.2022 08:30 2,2 C 1,7 C -1,1 C 96 % 1018,5 hPa 0,0 l/m 0 min 5 min 0 W/m 0,0 km/h (0 Bft) 100,00 %
05.12.2022 08:35 2,2 C 1,7 C -1,1 C 96 % 1018,6 hPa 0,0 l/m 0 min 5 min 0 W/m 0,0 km/h (0 Bft) 100,00 %
05.12.2022 08:40 2,2 C 1,7 C -1,1 C 96 % 1018,5 hPa 0,0 l/m 0 min 5 min 0 W/m 0,0 km/h (0 Bft) 100,00 %
05.12.2022 08:45 2,2 C 1,7 C -1,1 C 96 % 1018,6 hPa 0,0 l/m 0 min 5 min 0 W/m 0,0 km/h (0 Bft) 99,12 %
05.12.2022 08:50 2,1 C 1,7 C -1,1 C 96 % 1018,6 hPa 0,2 l/m 0 min 5 min 0 W/m 0,0 km/h (0 Bft) 97,06 %
05.12.2022 08:52 2,2 C 1,7 C -1,1 C 96 % 1018,6 hPa 0,0 l/m 0 min 2 min 4 W/m 0,0 km/h (0 Bft) 95,74 %
05.12.2022 08:54 2,1 C 1,7 C -1,1 C 96 % 1018,6 hPa 0,0 l/m 0 min 2 min 5 W/m 0,0 km/h (0 Bft) 95,74 %
05.12.2022 08:56 2,1 C 1,7 C -1,1 C 96 % 1018,6 hPa 0,2 l/m 0 min 2 min 7 W/m 6,4 km/h (2 Bft) 97,87 %
05.12.2022 08:58 2,1 C 1,7 C -1,1 C 96 % 1018,6 hPa 0,0 l/m 0 min 2 min 9 W/m 3,2 km/h (1 Bft) 97,87 %
05.12.2022 09:00 2,1 C 1,1 C -1,1 C 96 % 1018,6 hPa 0,0 l/m 0 min 2 min 11 W/m 3,2 km/h (1 Bft) 93,48 %
05.12.2022 09:02 2,1 C 1,1 C -1,1 C 96 % 1018,6 hPa 0,0 l/m 0 min 2 min 11 W/m 3,2 km/h (1 Bft) 97,87 %
05.12.2022 09:04 2,1 C 1,1 C -1,1 C 96 % 1018,7 hPa 0,0 l/m 0 min 2 min 12 W/m 0,0 km/h (0 Bft) 95,74 %
05.12.2022 09:06 2,0 C 1,1 C -1,1 C 96 % 1018,7 hPa 0,0 l/m 0 min 2 min 12 W/m 0,0 km/h (0 Bft) 97,87 %
05.12.2022 09:08 2,0 C 1,1 C -1,1 C 96 % 1018,7 hPa 0,0 l/m 0 min 2 min 12 W/m 0,0 km/h (0 Bft) 97,87 %
05.12.2022 09:10 2,0 C 1,7 C -1,1 C 96 % 1018,7 hPa 0,0 l/m 0 min 2 min 14 W/m 3,2 km/h (1 Bft) 93,48 %
05.12.2022 09:12 2,0 C 1,7 C -1,1 C 96 % 1018,7 hPa 0,2 l/m 0 min 2 min 14 W/m 0,0 km/h (0 Bft) 97,87 %
05.12.2022 09:14 2,0 C 1,7 C -1,1 C 96 % 1018,7 hPa 0,0 l/m 0 min 2 min 14 W/m 3,2 km/h (1 Bft) 95,74 %
05.12.2022 09:16 2,0 C 1,7 C -1,1 C 96 % 1018,7 hPa 0,0 l/m 0 min 2 min 14 W/m 0,0 km/h (0 Bft) 89,36 %
05.12.2022 09:18 1,9 C 1,7 C -1,1 C 96 % 1018,8 hPa 0,0 l/m 0 min 2 min 14 W/m 0,0 km/h (0 Bft) 95,74 %
05.12.2022 09:20 1,9 C 1,7 C -1,1 C 96 % 1018,8 hPa 0,2 l/m 0 min 2 min 14 W/m 0,0 km/h (0 Bft) 93,62 %
05.12.2022 09:22 1,9 C 1,1 C -1,1 C 96 % 1018,9 hPa 0,0 l/m 0 min 2 min 14 W/m 0,0 km/h (0 Bft) 95,65 %
05.12.2022 09:24 1,9 C 1,1 C -1,1 C 96 % 1018,9 hPa 0,0 l/m 0 min 2 min 12 W/m 0,0 km/h (0 Bft) 95,74 %
05.12.2022 09:26 1,9 C 1,7 C -1,1 C 96 % 1018,9 hPa 0,0 l/m 0 min 2 min 12 W/m 0,0 km/h (0 Bft) 93,62 %
05.12.2022 09:28 1,9 C 1,7 C -1,1 C 96 % 1019,0 hPa 0,0 l/m 0 min 2 min 12 W/m 0,0 km/h (0 Bft) 97,87 %
05.12.2022 09:30 1,9 C 1,7 C -1,1 C 96 % 1019,0 hPa 0,0 l/m 0 min 2 min 12 W/m 0,0 km/h (0 Bft) 95,74 %
05.12.2022 09:32 1,9 C 1,7 C -1,1 C 96 % 1019,0 hPa 0,0 l/m 0 min 2 min 14 W/m 0,0 km/h (0 Bft) 93,62 %
05.12.2022 09:34 1,9 C 1,7 C -1,1 C 96 % 1019,0 hPa 0,0 l/m 0 min 2 min 14 W/m 0,0 km/h (0 Bft) 95,65 %
05.12.2022 09:36 1,9 C 1,7 C -1,1 C 96 % 1019,1 hPa 0,0 l/m 0 min 2 min 16 W/m 3,2 km/h (1 Bft) 93,62 %
05.12.2022 09:38 1,9 C 1,7 C -1,1 C 96 % 1019,1 hPa 0,0 l/m 0 min 2 min 17 W/m 3,2 km/h (1 Bft) 95,74 %
05.12.2022 09:40 1,9 C 1,7 C -1,1 C 96 % 1019,1 hPa 0,0 l/m 0 min 2 min 18 W/m 0,0 km/h (0 Bft) 95,74 %
05.12.2022 09:42 1,9 C 1,7 C -1,1 C 96 % 1019,1 hPa 0,2 l/m 0 min 2 min 20 W/m 0,0 km/h (0 Bft) 95,74 %
05.12.2022 09:44 1,9 C 1,1 C -1,1 C 96 % 1019,1 hPa 0,0 l/m 0 min 2 min 23 W/m 3,2 km/h (1 Bft) 93,62 %
05.12.2022 09:46 1,9 C 1,1 C -1,1 C 97 % 1019,2 hPa 0,0 l/m 0 min 2 min 23 W/m 0,0 km/h (0 Bft) 95,65 %
05.12.2022 09:48 1,9 C 1,7 C -1,1 C 97 % 1019,2 hPa 0,0 l/m 0 min 2 min 24 W/m 0,0 km/h (0 Bft) 95,74 %
05.12.2022 09:50 1,9 C 1,7 C -1,1 C 97 % 1019,2 hPa 0,0 l/m 0 min 2 min 25 W/m 0,0 km/h (0 Bft) 97,87 %
05.12.2022 09:52 1,9 C 1,7 C -1,1 C 97 % 1019,2 hPa 0,0 l/m 0 min 2 min 27 W/m 0,0 km/h (0 Bft) 78,72 %
05.12.2022 09:54 1,9 C 1,7 C -1,1 C 97 % 1019,1 hPa 0,0 l/m 0 min 2 min 30 W/m 0,0 km/h (0 Bft) 70,21 %
05.12.2022 09:56 1,9 C 1,7 C -1,1 C 97 % 1019,1 hPa 0,2 l/m 0 min 2 min 32 W/m 3,2 km/h (1 Bft) 97,87 %
05.12.2022 09:58 1,9 C 1,7 C -1,1 C 97 % 1019,2 hPa 0,0 l/m 0 min 2 min 33 W/m 3,2 km/h (1 Bft) 97,83 %
05.12.2022 10:00 1,9 C 1,7 C -1,1 C 97 % 1019,2 hPa 0,0 l/m 0 min 2 min 36 W/m 0,0 km/h (0 Bft) 97,87 %
05.12.2022 10:02 1,9 C 1,7 C -1,1 C 97 % 1019,3 hPa 0,0 l/m 0 min 2 min 39 W/m 0,0 km/h (0 Bft) 93,62 %
05.12.2022 10:04 1,9 C 1,7 C -1,1 C 97 % 1019,3 hPa 0,0 l/m 0 min 2 min 41 W/m 3,2 km/h (1 Bft) 97,87 %
05.12.2022 10:06 1,9 C 1,7 C -1,1 C 97 % 1019,2 hPa 0,0 l/m 0 min 2 min 45 W/m 0,0 km/h (0 Bft) 97,87 %
05.12.2022 10:08 1,9 C 1,7 C -1,1 C 97 % 1019,3 hPa 0,0 l/m 0 min 2 min 47 W/m 0,0 km/h (0 Bft) 97,87 %
05.12.2022 10:10 1,9 C 1,7 C -1,1 C 97 % 1019,3 hPa 0,0 l/m 0 min 2 min 49 W/m 0,0 km/h (0 Bft) 100,00 %
05.12.2022 10:12 1,9 C 1,7 C -1,1 C 97 % 1019,3 hPa 0,0 l/m 0 min 2 min 49 W/m 3,2 km/h (1 Bft) 100,00 %
05.12.2022 10:14 1,9 C 1,7 C -1,1 C 97 % 1019,3 hPa 0,0 l/m 0 min 2 min 49 W/m 0,0 km/h (0 Bft) 97,87 %
05.12.2022 10:16 1,9 C 1,7 C -1,1 C 97 % 1019,3 hPa 0,2 l/m 0 min 2 min 51 W/m 0,0 km/h (0 Bft) 97,87 %
05.12.2022 10:18 1,9 C 1,7 C -1,1 C 97 % 1019,3 hPa 0,0 l/m 0 min 2 min 54 W/m 3,2 km/h (1 Bft) 100,00 %
05.12.2022 10:20 1,9 C 1,7 C -1,1 C 97 % 1019,3 hPa 0,0 l/m 0 min 2 min 56 W/m 3,2 km/h (1 Bft) 100,00 %
05.12.2022 10:22 1,9 C 1,7 C -1,1 C 97 % 1019,3 hPa 0,0 l/m 0 min 2 min 57 W/m 3,2 km/h (1 Bft) 97,83 %
05.12.2022 10:24 1,9 C 1,7 C -1,1 C 97 % 1019,3 hPa 0,0 l/m 0 min 2 min 61 W/m 3,2 km/h (1 Bft) 95,74 %
05.12.2022 10:26 1,8 C 1,7 C -1,1 C 97 % 1019,3 hPa 0,2 l/m 0 min 2 min 63 W/m 3,2 km/h (1 Bft) 100,00 %
05.12.2022 10:28 1,8 C 1,7 C -1,1 C 97 % 1019,4 hPa 0,0 l/m 0 min 2 min 63 W/m 3,2 km/h (1 Bft) 100,00 %
05.12.2022 10:30 1,8 C 1,7 C -1,1 C 97 % 1019,4 hPa 0,0 l/m 0 min 2 min 64 W/m 0,0 km/h (0 Bft) 100,00 %
05.12.2022 10:32 1,8 C 1,7 C -1,1 C 97 % 1019,4 hPa 0,0 l/m 0 min 2 min 69 W/m 3,2 km/h (1 Bft) 100,00 %
05.12.2022 10:34 1,8 C 1,7 C -1,1 C 97 % 1019,4 hPa 0,0 l/m 0 min 2 min 70 W/m 0,0 km/h (0 Bft) 100,00 %
05.12.2022 10:36 1,8 C 1,7 C -1,1 C 97 % 1019,4 hPa 0,0 l/m 0 min 2 min 70 W/m 0,0 km/h (0 Bft) 100,00 %
05.12.2022 10:38 1,8 C 1,7 C -1,1 C 97 % 1019,4 hPa 0,0 l/m 0 min 2 min 72 W/m 0,0 km/h (0 Bft) 100,00 %
05.12.2022 10:40 1,8 C 1,7 C -1,1 C 97 % 1019,4 hPa 0,0 l/m 0 min 2 min 71 W/m 0,0 km/h (0 Bft) 100,00 %
05.12.2022 10:42 1,8 C 1,7 C -1,1 C 97 % 1019,4 hPa 0,0 l/m 0 min 2 min 73 W/m 0,0 km/h (0 Bft) 100,00 %
05.12.2022 10:44 1,8 C 2,2 C -0,6 C 97 % 1019,4 hPa 0,0 l/m 0 min 2 min 76 W/m 0,0 km/h (0 Bft) 100,00 %
05.12.2022 10:46 1,9 C 2,2 C -0,6 C 97 % 1019,4 hPa 0,0 l/m 0 min 2 min 77 W/m 3,2 km/h (1 Bft) 95,65 %
05.12.2022 10:48 1,8 C 1,7 C -1,1 C 97 % 1019,4 hPa 0,2 l/m 0 min 2 min 76 W/m 3,2 km/h (1 Bft) 97,87 %
05.12.2022 10:50 1,8 C 1,7 C -1,1 C 97 % 1019,4 hPa 0,0 l/m 0 min 2 min 76 W/m 0,0 km/h (0 Bft) 95,74 %
05.12.2022 10:52 1,8 C 1,7 C -1,1 C 97 % 1019,4 hPa 0,0 l/m 0 min 2 min 76 W/m 0,0 km/h (0 Bft) 95,74 %
05.12.2022 10:54 1,8 C 1,7 C -1,1 C 97 % 1019,4 hPa 0,0 l/m 0 min 2 min 77 W/m 0,0 km/h (0 Bft) 100,00 %
05.12.2022 10:56 1,8 C 2,2 C -1,1 C 97 % 1019,5 hPa 0,0 l/m 0 min 2 min 80 W/m 0,0 km/h (0 Bft) 100,00 %
05.12.2022 10:58 1,8 C 2,2 C -1,1 C 97 % 1019,5 hPa 0,0 l/m 0 min 2 min 72 W/m 0,0 km/h (0 Bft) 100,00 %
05.12.2022 11:00 1,8 C 2,2 C -1,1 C 97 % 1019,5 hPa 0,0 l/m 0 min 2 min 69 W/m 0,0 km/h (0 Bft) 100,00 %
05.12.2022 11:02 1,9 C 2,2 C -0,6 C 97 % 1019,5 hPa 0,0 l/m 0 min 2 min 73 W/m 0,0 km/h (0 Bft) 95,92 %
05.12.2022 11:04 1,9 C 2,2 C -0,6 C 97 % 1019,4 hPa 0,0 l/m 0 min 2 min 72 W/m 0,0 km/h (0 Bft) 97,87 %
05.12.2022 11:06 1,9 C 2,2 C -1,1 C 97 % 1019,4 hPa 0,0 l/m 0 min 2 min 66 W/m 0,0 km/h (0 Bft) 97,87 %
05.12.2022 11:08 1,9 C 2,2 C -0,6 C 97 % 1019,4 hPa 0,2 l/m 0 min 2 min 61 W/m 0,0 km/h (0 Bft) 93,48 %
05.12.2022 11:10 1,9 C 2,2 C -0,6 C 97 % 1019,4 hPa 0,0 l/m 0 min 2 min 55 W/m 0,0 km/h (0 Bft) 95,74 %
05.12.2022 11:12 1,9 C 1,7 C -1,1 C 97 % 1019,4 hPa 0,0 l/m 0 min 2 min 54 W/m 0,0 km/h (0 Bft) 95,74 %
05.12.2022 11:14 1,9 C 1,7 C -0,6 C 97 % 1019,4 hPa 0,0 l/m 0 min 2 min 49 W/m 0,0 km/h (0 Bft) 95,74 %
05.12.2022 11:16 1,9 C 1,7 C -0,6 C 97 % 1019,4 hPa 0,0 l/m 0 min 2 min 45 W/m 0,0 km/h (0 Bft) 95,74 %
05.12.2022 11:18 2,0 C 1,7 C -0,6 C 97 % 1019,4 hPa 0,0 l/m 0 min 2 min 46 W/m 0,0 km/h (0 Bft) 95,74 %
05.12.2022 11:20 2,0 C 1,7 C -0,6 C 97 % 1019,4 hPa 0,0 l/m 0 min 2 min 51 W/m 0,0 km/h (0 Bft) 93,48 %
05.12.2022 11:22 2,0 C 1,7 C -0,6 C 97 % 1019,4 hPa 0,0 l/m 0 min 2 min 61 W/m 3,2 km/h (1 Bft) 97,87 %
05.12.2022 11:24 1,9 C 1,7 C -1,1 C 97 % 1019,4 hPa 0,0 l/m 0 min 2 min 65 W/m 3,2 km/h (1 Bft) 95,74 %
05.12.2022 11:26 1,9 C 1,7 C -0,6 C 97 % 1019,4 hPa 0,0 l/m 0 min 2 min 63 W/m 3,2 km/h (1 Bft) 91,43 %
05.12.2022 11:28 1,9 C 1,7 C -1,1 C 97 % 1019,4 hPa 0,0 l/m 0 min 2 min 57 W/m 6,4 km/h (2 Bft) 92,73 %
05.12.2022 11:30 1,9 C 1,7 C -0,6 C 97 % 1019,4 hPa 0,0 l/m 0 min 2 min 54 W/m 3,2 km/h (1 Bft) 95,74 %
05.12.2022 11:32 1,9 C 1,7 C -0,6 C 97 % 1019,5 hPa 0,0 l/m 0 min 2 min 57 W/m 0,0 km/h (0 Bft) 95,74 %
05.12.2022 11:34 1,9 C 1,7 C -0,6 C 97 % 1019,5 hPa 0,0 l/m 0 min 2 min 63 W/m 3,2 km/h (1 Bft) 95,65 %
05.12.2022 11:36 1,9 C 1,7 C -0,6 C 97 % 1019,5 hPa 0,0 l/m 0 min 2 min 63 W/m 6,4 km/h (2 Bft) 72,34 %
05.12.2022 11:38 1,9 C 1,7 C -1,1 C 97 % 1019,4 hPa 0,0 l/m 0 min 2 min 62 W/m 3,2 km/h (1 Bft) 54,55 %
05.12.2022 11:40 1,8 C 1,7 C -1,1 C 97 % 1019,4 hPa 0,0 l/m 0 min 2 min 56 W/m 3,2 km/h (1 Bft) 95,74 %
05.12.2022 11:42 1,8 C 1,7 C -1,1 C 97 % 1019,4 hPa 0,0 l/m 0 min 2 min 56 W/m 6,4 km/h (2 Bft) 93,62 %
05.12.2022 11:44 1,8 C 1,7 C -1,1 C 97 % 1019,4 hPa 0,0 l/m 0 min 2 min 57 W/m 6,4 km/h (2 Bft) 100,00 %
05.12.2022 11:46 1,8 C 1,7 C -1,1 C 97 % 1019,4 hPa 0,0 l/m 0 min 2 min 61 W/m 6,4 km/h (2 Bft) 100,00 %
05.12.2022 11:48 1,8 C 1,7 C -1,1 C 97 % 1019,5 hPa 0,0 l/m 0 min 2 min 58 W/m 3,2 km/h (1 Bft) 97,87 %
05.12.2022 11:50 1,8 C 1,7 C -1,1 C 97 % 1019,5 hPa 0,0 l/m 0 min 2 min 54 W/m 6,4 km/h (2 Bft) 100,00 %
05.12.2022 11:52 1,8 C 1,7 C -1,1 C 97 % 1019,5 hPa 0,2 l/m 0 min 2 min 49 W/m 0,0 km/h (0 Bft) 97,87 %
05.12.2022 11:54 1,8 C 1,7 C -1,1 C 97 % 1019,5 hPa 0,0 l/m 0 min 2 min 48 W/m 6,4 km/h (2 Bft) 100,00 %
05.12.2022 11:56 1,8 C 1,7 C -1,1 C 97 % 1019,5 hPa 0,0 l/m 0 min 2 min 51 W/m 6,4 km/h (2 Bft) 97,83 %
05.12.2022 11:58 1,8 C 1,1 C -1,1 C 97 % 1019,5 hPa 0,0 l/m 0 min 2 min 48 W/m 3,2 km/h (1 Bft) 97,87 %
05.12.2022 12:00 1,7 C 1,1 C -1,1 C 97 % 1019,5 hPa 0,0 l/m 0 min 2 min 46 W/m 6,4 km/h (2 Bft) 100,00 %
05.12.2022 12:02 1,7 C 1,1 C -1,1 C 97 % 1019,5 hPa 0,0 l/m 0 min 2 min 46 W/m 3,2 km/h (1 Bft) 97,87 %
05.12.2022 12:04 1,7 C 1,1 C -1,1 C 97 % 1019,5 hPa 0,0 l/m 0 min 2 min 46 W/m 3,2 km/h (1 Bft) 100,00 %
05.12.2022 12:08 1,7 C 1,1 C -1,1 C 97 % 1019,5 hPa 0,2 l/m 0 min 4 min 46 W/m 6,4 km/h (2 Bft) 100,00 %
05.12.2022 12:10 1,7 C 1,1 C -1,1 C 97 % 1019,5 hPa 0,0 l/m 0 min 2 min 46 W/m 0,0 km/h (0 Bft) 100,00 %
05.12.2022 12:12 1,7 C 1,1 C -1,1 C 97 % 1019,5 hPa 0,0 l/m 0 min 2 min 50 W/m 3,2 km/h (1 Bft) 100,00 %
05.12.2022 12:14 1,7 C 1,1 C -1,1 C 97 % 1019,5 hPa 0,0 l/m 0 min 2 min 56 W/m 6,4 km/h (2 Bft) 97,87 %
05.12.2022 12:16 1,7 C 1,1 C -1,1 C 97 % 1019,5 hPa 0,0 l/m 0 min 2 min 60 W/m 6,4 km/h (2 Bft) 100,00 %
05.12.2022 12:18 1,7 C 1,1 C -1,1 C 97 % 1019,5 hPa 0,0 l/m 0 min 2 min 62 W/m 6,4 km/h (2 Bft) 100,00 %
05.12.2022 12:20 1,7 C 1,1 C -1,1 C 97 % 1019,4 hPa 0,0 l/m 0 min 2 min 61 W/m 3,2 km/h (1 Bft) 97,83 %
05.12.2022 12:22 1,6 C 1,1 C -1,1 C 97 % 1019,4 hPa 0,2 l/m 0 min 2 min 62 W/m 3,2 km/h (1 Bft) 100,00 %
05.12.2022 12:24 1,6 C 1,7 C -1,1 C 97 % 1019,4 hPa 0,0 l/m 0 min 2 min 63 W/m 6,4 km/h (2 Bft) 100,00 %
05.12.2022 12:26 1,6 C 1,1 C -1,1 C 97 % 1019,4 hPa 0,0 l/m 0 min 2 min 65 W/m 6,4 km/h (2 Bft) 95,74 %
05.12.2022 12:28 1,6 C 1,1 C -1,1 C 97 % 1019,4 hPa 0,0 l/m 0 min 2 min 66 W/m 6,4 km/h (2 Bft) 97,87 %
05.12.2022 12:30 1,6 C 1,1 C -1,1 C 97 % 1019,4 hPa 0,0 l/m 0 min 2 min 64 W/m 6,4 km/h (2 Bft) 97,87 %
05.12.2022 12:32 1,6 C 1,1 C -1,1 C 97 % 1019,4 hPa 0,0 l/m 0 min 2 min 62 W/m 6,4 km/h (2 Bft) 95,65 %
05.12.2022 12:34 1,6 C 1,1 C -1,1 C 97 % 1019,4 hPa 0,2 l/m 0 min 2 min 60 W/m 6,4 km/h (2 Bft) 97,87 %
05.12.2022 12:36 1,5 C 1,1 C -1,1 C 97 % 1019,3 hPa 0,0 l/m 0 min 2 min 58 W/m 3,2 km/h (1 Bft) 97,87 %
05.12.2022 12:38 1,5 C 1,1 C -1,1 C 97 % 1019,3 hPa 0,0 l/m 0 min 2 min 56 W/m 3,2 km/h (1 Bft) 93,62 %
05.12.2022 12:40 1,5 C 1,1 C -1,1 C 97 % 1019,4 hPa 0,0 l/m 0 min 2 min 54 W/m 3,2 km/h (1 Bft) 97,87 %
05.12.2022 12:42 1,5 C 1,1 C -1,1 C 97 % 1019,4 hPa 0,0 l/m 0 min 2 min 51 W/m 6,4 km/h (2 Bft) 97,87 %
05.12.2022 12:44 1,5 C 1,1 C -1,1 C 97 % 1019,4 hPa 0,0 l/m 0 min 2 min 49 W/m 3,2 km/h (1 Bft) 95,65 %
05.12.2022 12:46 1,4 C 1,1 C -1,7 C 97 % 1019,4 hPa 0,0 l/m 0 min 2 min 47 W/m 6,4 km/h (2 Bft) 95,74 %
05.12.2022 12:48 1,4 C 1,1 C -1,7 C 97 % 1019,3 hPa 0,2 l/m 0 min 2 min 46 W/m 6,4 km/h (2 Bft) 95,74 %
05.12.2022 12:50 1,4 C 1,1 C -1,1 C 97 % 1019,3 hPa 0,0 l/m 0 min 2 min 43 W/m 6,4 km/h (2 Bft) 95,74 %
05.12.2022 12:52 1,4 C 1,1 C -1,1 C 97 % 1019,3 hPa 0,0 l/m 0 min 2 min 42 W/m 3,2 km/h (1 Bft) 95,74 %
05.12.2022 12:54 1,4 C 1,1 C -1,1 C 97 % 1019,3 hPa 0,0 l/m 0 min 2 min 42 W/m 3,2 km/h (1 Bft) 95,74 %
05.12.2022 12:56 1,4 C 1,1 C -1,1 C 97 % 1019,4 hPa 0,0 l/m 0 min 2 min 40 W/m 3,2 km/h (1 Bft) 93,48 %
05.12.2022 12:58 1,4 C 1,1 C -1,1 C 97 % 1019,3 hPa 0,2 l/m 0 min 2 min 40 W/m 0,0 km/h (0 Bft) 95,74 %
05.12.2022 13:00 1,4 C 1,1 C -1,1 C 97 % 1019,3 hPa 0,0 l/m 0 min 2 min 39 W/m 0,0 km/h (0 Bft) 95,74 %
05.12.2022 13:02 1,3 C 1,1 C -1,1 C 97 % 1019,4 hPa 0,0 l/m 0 min 2 min 38 W/m 0,0 km/h (0 Bft) 93,62 %
05.12.2022 13:04 1,3 C 1,1 C -1,1 C 97 % 1019,4 hPa 0,0 l/m 0 min 2 min 37 W/m 0,0 km/h (0 Bft) 95,74 %
05.12.2022 13:06 1,3 C 1,1 C -1,1 C 97 % 1019,3 hPa 0,0 l/m 0 min 2 min 37 W/m 3,2 km/h (1 Bft) 89,36 %
05.12.2022 13:08 1,3 C 1,1 C -1,1 C 97 % 1019,3 hPa 0,0 l/m 0 min 2 min 36 W/m 0,0 km/h (0 Bft) 95,65 %
05.12.2022 13:10 1,3 C 0,6 C -1,1 C 97 % 1019,3 hPa 0,0 l/m 0 min 2 min 33 W/m 0,0 km/h (0 Bft) 95,74 %
05.12.2022 13:12 1,2 C 0,6 C -1,7 C 97 % 1019,3 hPa 0,0 l/m 0 min 2 min 32 W/m 0,0 km/h (0 Bft) 91,49 %
05.12.2022 13:14 1,2 C 0,6 C -1,7 C 97 % 1019,3 hPa 0,0 l/m 0 min 2 min 30 W/m 0,0 km/h (0 Bft) 97,87 %
05.12.2022 13:16 1,2 C 0,6 C -1,7 C 97 % 1019,3 hPa 0,0 l/m 0 min 2 min 30 W/m 0,0 km/h (0 Bft) 93,62 %
05.12.2022 13:18 1,2 C 0,6 C -1,7 C 97 % 1019,4 hPa 0,2 l/m 0 min 2 min 30 W/m 3,2 km/h (1 Bft) 48,78 %
05.12.2022 13:20 1,2 C 0,6 C -1,7 C 97 % 1019,4 hPa 0,0 l/m 0 min 2 min 32 W/m 3,2 km/h (1 Bft) 93,48 %
05.12.2022 13:22 1,2 C 0,6 C -1,7 C 97 % 1019,4 hPa 0,0 l/m 0 min 2 min 32 W/m 0,0 km/h (0 Bft) 95,74 %
05.12.2022 13:24 1,1 C 0,6 C -1,7 C 97 % 1019,3 hPa 0,0 l/m 0 min 2 min 32 W/m 3,2 km/h (1 Bft) 97,87 %
05.12.2022 13:26 1,1 C 0,6 C -1,7 C 97 % 1019,4 hPa 0,0 l/m 0 min 2 min 31 W/m 0,0 km/h (0 Bft) 100,00 %
05.12.2022 13:28 1,1 C 0,6 C -1,7 C 97 % 1019,4 hPa 0,0 l/m 0 min 2 min 28 W/m 3,2 km/h (1 Bft) 97,87 %
05.12.2022 13:30 1,1 C 0,6 C -1,7 C 97 % 1019,4 hPa 0,0 l/m 0 min 2 min 29 W/m 3,2 km/h (1 Bft) 95,74 %
05.12.2022 13:32 1,1 C 0,6 C -1,7 C 97 % 1019,4 hPa 0,0 l/m 0 min 2 min 31 W/m 3,2 km/h (1 Bft) 97,83 %
05.12.2022 13:34 1,1 C 0,6 C -1,7 C 97 % 1019,3 hPa 0,0 l/m 0 min 2 min 32 W/m 3,2 km/h (1 Bft) 97,87 %
05.12.2022 13:36 1,1 C 0,6 C -1,7 C 97 % 1019,4 hPa 0,0 l/m 0 min 2 min 34 W/m 0,0 km/h (0 Bft) 97,87 %
05.12.2022 13:38 1,1 C 0,6 C -1,7 C 97 % 1019,4 hPa 0,0 l/m 0 min 2 min 36 W/m 0,0 km/h (0 Bft) 97,87 %
05.12.2022 13:40 1,0 C 0,6 C -1,7 C 97 % 1019,3 hPa 0,0 l/m 0 min 2 min 38 W/m 0,0 km/h (0 Bft) 95,74 %
05.12.2022 13:42 1,0 C 0,6 C -1,7 C 97 % 1019,4 hPa 0,0 l/m 0 min 2 min 38 W/m 0,0 km/h (0 Bft) 97,87 %
05.12.2022 13:44 1,0 C 0,6 C -2,2 C 97 % 1019,4 hPa 0,0 l/m 0 min 2 min 40 W/m 0,0 km/h (0 Bft) 97,83 %
05.12.2022 13:46 0,9 C 0,6 C -2,2 C 97 % 1019,3 hPa 0,2 l/m 0 min 2 min 43 W/m 0,0 km/h (0 Bft) 97,87 %
05.12.2022 13:48 0,9 C 0,6 C -2,2 C 97 % 1019,3 hPa 0,0 l/m 0 min 2 min 43 W/m 0,0 km/h (0 Bft) 97,87 %
05.12.2022 13:50 0,9 C 0,6 C -2,2 C 97 % 1019,3 hPa 0,0 l/m 0 min 2 min 40 W/m 0,0 km/h (0 Bft) 95,74 %
05.12.2022 13:52 0,9 C 0,6 C -1,7 C 97 % 1019,3 hPa 0,0 l/m 0 min 2 min 39 W/m 3,2 km/h (1 Bft) 95,74 %
05.12.2022 13:54 0,9 C 0,6 C -2,2 C 97 % 1019,3 hPa 0,0 l/m 0 min 2 min 38 W/m 0,0 km/h (0 Bft) 97,83 %
05.12.2022 13:56 0,9 C 0,6 C -2,2 C 97 % 1019,3 hPa 0,0 l/m 0 min 2 min 37 W/m 0,0 km/h (0 Bft) 95,74 %
05.12.2022 13:58 0,9 C 0,6 C -1,7 C 97 % 1019,2 hPa 0,0 l/m 0 min 2 min 37 W/m 0,0 km/h (0 Bft) 97,87 %
05.12.2022 14:00 0,9 C 0,6 C -2,2 C 97 % 1019,2 hPa 0,0 l/m 0 min 2 min 37 W/m 0,0 km/h (0 Bft) 97,87 %
05.12.2022 14:02 0,9 C 0,6 C -1,7 C 97 % 1019,2 hPa 0,0 l/m 0 min 2 min 37 W/m 0,0 km/h (0 Bft) 97,87 %
05.12.2022 14:04 0,9 C 0,6 C -1,7 C 97 % 1019,3 hPa 0,0 l/m 0 min 2 min 35 W/m 0,0 km/h (0 Bft) 97,87 %
05.12.2022 14:06 0,9 C 0,6 C -1,7 C 97 % 1019,2 hPa 0,0 l/m 0 min 2 min 34 W/m 0,0 km/h (0 Bft) 97,87 %
05.12.2022 14:08 0,8 C 0,6 C -2,2 C 97 % 1019,2 hPa 0,0 l/m 0 min 2 min 33 W/m 0,0 km/h (0 Bft) 97,83 %
05.12.2022 14:10 0,8 C 0,6 C -2,2 C 97 % 1019,3 hPa 0,0 l/m 0 min 2 min 32 W/m 0,0 km/h (0 Bft) 97,87 %
05.12.2022 14:12 0,8 C 0,6 C -1,7 C 97 % 1019,3 hPa 0,0 l/m 0 min 2 min 32 W/m 0,0 km/h (0 Bft) 100,00 %
05.12.2022 14:14 0,8 C 0,6 C -1,7 C 97 % 1019,2 hPa 0,0 l/m 0 min 2 min 35 W/m 0,0 km/h (0 Bft) 100,00 %
05.12.2022 14:16 0,8 C 0,6 C -1,7 C 97 % 1019,2 hPa 0,0 l/m 0 min 2 min 35 W/m 0,0 km/h (0 Bft) 100,00 %
05.12.2022 14:18 0,8 C 0,6 C -1,7 C 97 % 1019,3 hPa 0,2 l/m 0 min 2 min 35 W/m 0,0 km/h (0 Bft) 100,00 %
05.12.2022 14:20 0,8 C 0,6 C -1,7 C 97 % 1019,2 hPa 0,0 l/m 0 min 2 min 37 W/m 0,0 km/h (0 Bft) 100,00 %
05.12.2022 14:22 0,8 C 0,6 C -1,7 C 97 % 1019,2 hPa 0,0 l/m 0 min 2 min 37 W/m 0,0 km/h (0 Bft) 100,00 %
05.12.2022 14:24 0,8 C 0,6 C -2,2 C 97 % 1019,2 hPa 0,0 l/m 0 min 2 min 37 W/m 0,0 km/h (0 Bft) 100,00 %
05.12.2022 14:26 0,8 C 0,6 C -2,2 C 97 % 1019,2 hPa 0,0 l/m 0 min 2 min 35 W/m 0,0 km/h (0 Bft) 100,00 %
05.12.2022 14:28 0,8 C 0,6 C -2,2 C 97 % 1019,3 hPa 0,0 l/m 0 min 2 min 35 W/m 0,0 km/h (0 Bft) 100,00 %
05.12.2022 14:30 0,8 C 0,6 C -1,7 C 97 % 1019,2 hPa 0,0 l/m 0 min 2 min 37 W/m 0,0 km/h (0 Bft) 100,00 %
05.12.2022 14:32 0,8 C 0,6 C -1,7 C 97 % 1019,2 hPa 0,0 l/m 0 min 2 min 36 W/m 0,0 km/h (0 Bft) 95,74 %
05.12.2022 14:34 0,8 C 0,6 C -1,7 C 97 % 1019,2 hPa 0,0 l/m 0 min 2 min 35 W/m 0,0 km/h (0 Bft) 100,00 %
05.12.2022 14:36 0,7 C 0,6 C -1,7 C 97 % 1019,2 hPa 0,0 l/m 0 min 2 min 35 W/m 0,0 km/h (0 Bft) 100,00 %
05.12.2022 14:38 0,7 C 0,6 C -1,7 C 97 % 1019,2 hPa 0,0 l/m 0 min 2 min 33 W/m 0,0 km/h (0 Bft) 97,87 %
05.12.2022 14:40 0,7 C 0,6 C -1,7 C 97 % 1019,3 hPa 0,0 l/m 0 min 2 min 33 W/m 0,0 km/h (0 Bft) 97,87 %
05.12.2022 14:42 0,8 C 0,6 C -1,7 C 97 % 1019,3 hPa 0,2 l/m 0 min 2 min 31 W/m 0,0 km/h (0 Bft) 100,00 %
05.12.2022 14:44 0,8 C 0,6 C -1,7 C 97 % 1019,3 hPa 0,0 l/m 0 min 0 min 27 W/m 0,0 km/h (0 Bft) 95,74 %
05.12.2022 14:46 0,8 C 0,6 C -1,7 C 97 % 1019,2 hPa 0,0 l/m 0 min 0 min 25 W/m 0,0 km/h (0 Bft) 95,74 %
05.12.2022 14:48 0,8 C 0,6 C -1,7 C 97 % 1019,2 hPa 0,0 l/m 0 min 2 min 24 W/m 0,0 km/h (0 Bft) 97,87 %
05.12.2022 14:50 0,8 C 0,6 C -1,7 C 97 % 1019,3 hPa 0,0 l/m 0 min 2 min 22 W/m 0,0 km/h (0 Bft) 97,87 %
05.12.2022 14:52 0,8 C 0,0 C -1,7 C 97 % 1019,3 hPa 0,0 l/m 0 min 2 min 21 W/m 0,0 km/h (0 Bft) 97,87 %
05.12.2022 14:54 0,8 C 0,0 C -1,7 C 97 % 1019,3 hPa 0,0 l/m 0 min 2 min 21 W/m 0,0 km/h (0 Bft) 97,83 %
05.12.2022 14:56 0,8 C 0,6 C -1,7 C 97 % 1019,3 hPa 0,0 l/m 0 min 2 min 21 W/m 0,0 km/h (0 Bft) 97,87 %
05.12.2022 14:58 0,7 C 0,6 C -1,7 C 97 % 1019,3 hPa 0,0 l/m 0 min 0 min 20 W/m 0,0 km/h (0 Bft) 95,74 %
05.12.2022 15:00 0,8 C 0,0 C -1,7 C 97 % 1019,3 hPa 0,0 l/m 0 min 2 min 19 W/m 0,0 km/h (0 Bft) 97,87 %
05.12.2022 15:02 0,8 C 0,0 C -1,7 C 97 % 1019,3 hPa 0,0 l/m 0 min 0 min 19 W/m 0,0 km/h (0 Bft) 95,74 %
05.12.2022 15:04 0,8 C 0,0 C -1,7 C 97 % 1019,3 hPa 0,0 l/m 0 min 0 min 18 W/m 6,4 km/h (2 Bft) 97,87 %
05.12.2022 15:06 0,7 C 0,0 C -1,7 C 97 % 1019,3 hPa 0,0 l/m 0 min 0 min 18 W/m 0,0 km/h (0 Bft) 97,83 %
05.12.2022 15:08 0,7 C 0,0 C -1,7 C 97 % 1019,3 hPa 0,0 l/m 0 min 2 min 16 W/m 0,0 km/h (0 Bft) 97,87 %
05.12.2022 15:10 0,7 C 0,0 C -1,7 C 97 % 1019,3 hPa 0,0 l/m 0 min 2 min 16 W/m 0,0 km/h (0 Bft) 95,74 %
05.12.2022 15:12 0,7 C 0,0 C -1,7 C 97 % 1019,3 hPa 0,0 l/m 0 min 2 min 16 W/m 0,0 km/h (0 Bft) 100,00 %
05.12.2022 15:14 0,7 C 0,0 C -1,7 C 97 % 1019,4 hPa 0,0 l/m 0 min 0 min 16 W/m 0,0 km/h (0 Bft) 97,87 %
05.12.2022 15:16 0,7 C 0,0 C -1,7 C 97 % 1019,4 hPa 0,2 l/m 0 min 0 min 16 W/m 0,0 km/h (0 Bft) 97,87 %
05.12.2022 15:18 0,7 C 0,0 C -1,7 C 97 % 1019,4 hPa 0,0 l/m 0 min 2 min 17 W/m 0,0 km/h (0 Bft) 100,00 %
05.12.2022 15:20 0,7 C 0,0 C -1,7 C 97 % 1019,4 hPa 0,0 l/m 0 min 2 min 18 W/m 0,0 km/h (0 Bft) 100,00 %
05.12.2022 15:22 0,7 C 0,0 C -1,7 C 97 % 1019,4 hPa 0,0 l/m 0 min 2 min 18 W/m 0,0 km/h (0 Bft) 97,87 %
05.12.2022 15:24 0,7 C 0,0 C -1,7 C 97 % 1019,4 hPa 0,0 l/m 0 min 2 min 18 W/m 0,0 km/h (0 Bft) 100,00 %
05.12.2022 15:26 0,7 C 0,0 C -1,7 C 97 % 1019,5 hPa 0,0 l/m 0 min 2 min 18 W/m 0,0 km/h (0 Bft) 100,00 %
05.12.2022 15:28 0,7 C 0,0 C -1,7 C 97 % 1019,4 hPa 0,0 l/m 0 min 2 min 17 W/m 3,2 km/h (1 Bft) 100,00 %
05.12.2022 15:30 0,7 C 0,0 C -2,2 C 97 % 1019,4 hPa 0,0 l/m 0 min 2 min 16 W/m 0,0 km/h (0 Bft) 97,83 %
05.12.2022 15:32 0,7 C 0,0 C -2,2 C 97 % 1019,4 hPa 0,0 l/m 0 min 2 min 14 W/m 0,0 km/h (0 Bft) 100,00 %
05.12.2022 15:34 0,6 C 0,0 C -2,2 C 97 % 1019,5 hPa 0,0 l/m 0 min 2 min 13 W/m 0,0 km/h (0 Bft) 100,00 %
05.12.2022 15:36 0,6 C 0,0 C -2,2 C 97 % 1019,5 hPa 0,0 l/m 0 min 2 min 12 W/m 0,0 km/h (0 Bft) 97,87 %
05.12.2022 15:38 0,6 C 0,0 C -2,2 C 97 % 1019,5 hPa 0,0 l/m 0 min 2 min 11 W/m 0,0 km/h (0 Bft) 93,62 %
05.12.2022 15:40 0,6 C 0,0 C -2,2 C 97 % 1019,5 hPa 0,0 l/m 0 min 2 min 11 W/m 0,0 km/h (0 Bft) 100,00 %
05.12.2022 15:42 0,6 C 0,0 C -2,2 C 97 % 1019,4 hPa 0,0 l/m 0 min 2 min 9 W/m 0,0 km/h (0 Bft) 100,00 %
05.12.2022 15:44 0,6 C 0,0 C -2,2 C 97 % 1019,5 hPa 0,0 l/m 0 min 2 min 9 W/m 0,0 km/h (0 Bft) 100,00 %
05.12.2022 15:46 0,6 C 0,0 C -2,2 C 97 % 1019,5 hPa 0,0 l/m 0 min 2 min 9 W/m 0,0 km/h (0 Bft) 95,74 %
05.12.2022 15:48 0,6 C 0,0 C -2,2 C 97 % 1019,5 hPa 0,0 l/m 0 min 2 min 9 W/m 0,0 km/h (0 Bft) 95,74 %
05.12.2022 15:50 0,6 C 0,0 C -2,2 C 97 % 1019,5 hPa 0,0 l/m 0 min 2 min 8 W/m 0,0 km/h (0 Bft) 95,74 %
05.12.2022 15:52 0,6 C 0,0 C -2,2 C 97 % 1019,5 hPa 0,0 l/m 0 min 2 min 7 W/m 0,0 km/h (0 Bft) 97,87 %
05.12.2022 15:54 0,6 C 0,0 C -2,2 C 97 % 1019,5 hPa 0,0 l/m 0 min 2 min 7 W/m 0,0 km/h (0 Bft) 95,65 %
05.12.2022 15:56 0,6 C 0,0 C -2,2 C 97 % 1019,5 hPa 0,0 l/m 0 min 2 min 7 W/m 0,0 km/h (0 Bft) 95,74 %
05.12.2022 15:58 0,6 C 0,0 C -2,2 C 97 % 1019,5 hPa 0,0 l/m 0 min 2 min 5 W/m 0,0 km/h (0 Bft) 95,74 %
05.12.2022 16:00 0,6 C 0,0 C -2,2 C 98 % 1019,5 hPa 0,0 l/m 0 min 2 min 5 W/m 0,0 km/h (0 Bft) 95,74 %
05.12.2022 16:02 0,6 C 0,0 C -2,2 C 98 % 1019,5 hPa 0,0 l/m 0 min 2 min 0 W/m 0,0 km/h (0 Bft) 95,74 %
05.12.2022 16:04 0,6 C 0,0 C -2,2 C 98 % 1019,6 hPa 0,0 l/m 0 min 2 min 0 W/m 0,0 km/h (0 Bft) 93,62 %
05.12.2022 16:06 0,5 C 0,0 C -2,2 C 98 % 1019,6 hPa 0,0 l/m 0 min 2 min 0 W/m 0,0 km/h (0 Bft) 93,48 %
05.12.2022 16:08 0,5 C 0,0 C -2,2 C 98 % 1019,6 hPa 0,0 l/m 0 min 2 min 0 W/m 0,0 km/h (0 Bft) 95,74 %
05.12.2022 16:10 0,5 C 0,0 C -2,2 C 98 % 1019,6 hPa 0,0 l/m 0 min 2 min 0 W/m 0,0 km/h (0 Bft) 93,62 %
05.12.2022 16:12 0,4 C 0,0 C -2,8 C 98 % 1019,6 hPa 0,0 l/m 0 min 2 min 0 W/m 0,0 km/h (0 Bft) 93,62 %
05.12.2022 16:14 0,4 C 0,0 C -2,8 C 98 % 1019,6 hPa 0,0 l/m 0 min 2 min 0 W/m 0,0 km/h (0 Bft) 93,62 %
05.12.2022 16:16 0,4 C 0,0 C -2,8 C 97 % 1019,7 hPa 0,0 l/m 0 min 2 min 0 W/m 0,0 km/h (0 Bft) 95,74 %
05.12.2022 16:18 0,4 C 0,0 C -2,8 C 97 % 1019,7 hPa 0,0 l/m 0 min 0 min 0 W/m 0,0 km/h (0 Bft) 95,65 %
05.12.2022 16:20 0,4 C 0,0 C -2,8 C 97 % 1019,7 hPa 0,0 l/m 0 min 2 min 0 W/m 0,0 km/h (0 Bft) 93,62 %
05.12.2022 16:22 0,4 C -0,6 C -2,8 C 97 % 1019,7 hPa 0,0 l/m 0 min 0 min 0 W/m 0,0 km/h (0 Bft) 89,36 %
05.12.2022 16:24 0,4 C -0,6 C -2,8 C 97 % 1019,7 hPa 0,0 l/m 0 min 2 min 0 W/m 0,0 km/h (0 Bft) 89,36 %
05.12.2022 16:26 0,4 C -0,6 C -2,8 C 97 % 1019,7 hPa 0,0 l/m 0 min 2 min 0 W/m 0,0 km/h (0 Bft) 95,74 %
05.12.2022 16:28 0,4 C -0,6 C -2,8 C 97 % 1019,7 hPa 0,0 l/m 0 min 2 min 0 W/m 0,0 km/h (0 Bft) 95,74 %
05.12.2022 16:30 0,3 C -0,6 C -2,8 C 97 % 1019,7 hPa 0,0 l/m 0 min 2 min 0 W/m 0,0 km/h (0 Bft) 95,65 %
05.12.2022 16:32 0,3 C -0,6 C -2,8 C 97 % 1019,7 hPa 0,0 l/m 0 min 2 min 0 W/m 0,0 km/h (0 Bft) 95,74 %
05.12.2022 16:34 0,3 C -0,6 C -2,8 C 97 % 1019,7 hPa 0,0 l/m 0 min 0 min 0 W/m 0,0 km/h (0 Bft) 93,62 %
05.12.2022 16:36 0,3 C -0,6 C -2,8 C 97 % 1019,7 hPa 0,0 l/m 0 min 2 min 0 W/m 0,0 km/h (0 Bft) 95,74 %
05.12.2022 16:38 0,3 C -0,6 C -2,8 C 97 % 1019,8 hPa 0,0 l/m 0 min 0 min 0 W/m 0,0 km/h (0 Bft) 93,62 %
05.12.2022 16:40 0,3 C -0,6 C -2,8 C 97 % 1019,8 hPa 0,0 l/m 0 min 2 min 0 W/m 0,0 km/h (0 Bft) 93,62 %
05.12.2022 16:42 0,3 C -0,6 C -2,8 C 97 % 1019,8 hPa 0,0 l/m 0 min 0 min 0 W/m 0,0 km/h (0 Bft) 93,48 %
05.12.2022 16:44 0,3 C -0,6 C -2,8 C 98 % 1019,9 hPa 0,0 l/m 0 min 2 min 0 W/m 0,0 km/h (0 Bft) 95,74 %
05.12.2022 16:46 0,3 C -0,6 C -2,8 C 98 % 1019,8 hPa 0,0 l/m 0 min 2 min 0 W/m 0,0 km/h (0 Bft) 95,74 %
05.12.2022 16:48 0,3 C -0,6 C -2,8 C 98 % 1019,8 hPa 0,0 l/m 0 min 2 min 0 W/m 0,0 km/h (0 Bft) 93,62 %
05.12.2022 16:50 0,3 C -0,6 C -2,8 C 98 % 1019,9 hPa 0,0 l/m 0 min 2 min 0 W/m 0,0 km/h (0 Bft) 95,74 %
05.12.2022 16:52 0,3 C -0,6 C -2,8 C 98 % 1019,8 hPa 0,0 l/m 0 min 2 min 0 W/m 0,0 km/h (0 Bft) 93,62 %
05.12.2022 16:54 0,3 C -0,6 C -2,8 C 98 % 1019,9 hPa 0,0 l/m 0 min 2 min 0 W/m 0,0 km/h (0 Bft) 97,87 %
05.12.2022 16:56 0,3 C -0,6 C -2,8 C 98 % 1019,9 hPa 0,0 l/m 0 min 2 min 0 W/m 0,0 km/h (0 Bft) 97,87 %
05.12.2022 16:58 0,3 C -0,6 C -2,8 C 98 % 1019,9 hPa 0,0 l/m 0 min 2 min 0 W/m 0,0 km/h (0 Bft) 95,74 %
05.12.2022 17:00 0,3 C -0,6 C -2,8 C 98 % 1020,0 hPa 0,0 l/m 0 min 2 min 0 W/m 0,0 km/h (0 Bft) 97,87 %
05.12.2022 17:02 0,3 C -0,6 C -2,8 C 98 % 1020,0 hPa 0,0 l/m 0 min 0 min 0 W/m 0,0 km/h (0 Bft) 97,87 %
05.12.2022 17:04 0,3 C -0,6 C -2,8 C 98 % 1019,9 hPa 0,0 l/m 0 min 2 min 0 W/m 0,0 km/h (0 Bft) 95,65 %
05.12.2022 17:06 0,3 C -0,6 C -2,8 C 98 % 1019,9 hPa 0,0 l/m 0 min 2 min 0 W/m 0,0 km/h (0 Bft) 97,87 %
05.12.2022 17:08 0,3 C -0,6 C -2,8 C 98 % 1020,0 hPa 0,0 l/m 0 min 2 min 0 W/m 0,0 km/h (0 Bft) 50,00 %
05.12.2022 17:10 0,3 C -0,6 C -2,8 C 98 % 1019,9 hPa 0,0 l/m 0 min 2 min 0 W/m 0,0 km/h (0 Bft) 100,00 %
05.12.2022 17:12 0,3 C -0,6 C -2,8 C 98 % 1020,0 hPa 0,0 l/m 0 min 2 min 0 W/m 0,0 km/h (0 Bft) 100,00 %
05.12.2022 17:14 0,3 C -0,6 C -2,8 C 98 % 1019,9 hPa 0,0 l/m 0 min 2 min 0 W/m 0,0 km/h (0 Bft) 97,87 %
05.12.2022 17:16 0,3 C -0,6 C -2,8 C 98 % 1020,0 hPa 0,0 l/m 0 min 2 min 0 W/m 0,0 km/h (0 Bft) 97,83 %
05.12.2022 17:18 0,3 C -0,6 C -2,8 C 98 % 1020,0 hPa 0,0 l/m 0 min 2 min 0 W/m 0,0 km/h (0 Bft) 97,87 %
05.12.2022 17:20 0,3 C 0,0 C -2,8 C 98 % 1019,9 hPa 0,0 l/m 0 min 2 min 0 W/m 0,0 km/h (0 Bft) 100,00 %
05.12.2022 17:22 0,3 C 0,0 C -2,8 C 98 % 1020,0 hPa 0,0 l/m 0 min 2 min 0 W/m 0,0 km/h (0 Bft) 97,87 %
05.12.2022 17:24 0,3 C -0,6 C -2,8 C 98 % 1020,0 hPa 0,0 l/m 0 min 2 min 0 W/m 0,0 km/h (0 Bft) 97,87 %
05.12.2022 17:26 0,3 C -0,6 C -2,8 C 98 % 1020,0 hPa 0,0 l/m 0 min 2 min 0 W/m 0,0 km/h (0 Bft) 100,00 %
05.12.2022 17:28 0,3 C -0,6 C -2,2 C 98 % 1020,1 hPa 0,0 l/m 0 min 2 min 0 W/m 0,0 km/h (0 Bft) 97,83 %
05.12.2022 17:30 0,3 C -0,6 C -2,2 C 98 % 1020,1 hPa 0,0 l/m 0 min 2 min 0 W/m 0,0 km/h (0 Bft) 97,87 %
05.12.2022 17:32 0,3 C 0,0 C -2,2 C 98 % 1020,0 hPa 0,0 l/m 0 min 2 min 0 W/m 0,0 km/h (0 Bft) 100,00 %
05.12.2022 17:34 0,3 C 0,0 C -2,2 C 98 % 1020,0 hPa 0,0 l/m 0 min 2 min 0 W/m 0,0 km/h (0 Bft) 97,87 %
05.12.2022 17:36 0,3 C 0,0 C -2,2 C 98 % 1020,0 hPa 0,0 l/m 0 min 2 min 0 W/m 0,0 km/h (0 Bft) 100,00 %
05.12.2022 17:38 0,3 C 0,0 C -2,2 C 98 % 1020,1 hPa 0,0 l/m 0 min 0 min 0 W/m 0,0 km/h (0 Bft) 97,92 %
05.12.2022 17:40 0,3 C 0,0 C -2,2 C 98 % 1020,1 hPa 0,0 l/m 0 min 0 min 0 W/m 0,0 km/h (0 Bft) 100,00 %
05.12.2022 17:42 0,3 C 0,0 C -2,2 C 98 % 1020,1 hPa 0,0 l/m 0 min 2 min 0 W/m 0,0 km/h (0 Bft) 100,00 %
05.12.2022 17:44 0,3 C 0,0 C -2,2 C 98 % 1020,2 hPa 0,0 l/m 0 min 0 min 0 W/m 0,0 km/h (0 Bft) 100,00 %
05.12.2022 17:46 0,3 C 0,0 C -2,2 C 98 % 1020,2 hPa 0,0 l/m 0 min 2 min 0 W/m 0,0 km/h (0 Bft) 95,74 %
05.12.2022 17:48 0,3 C 0,0 C -2,2 C 98 % 1020,1 hPa 0,0 l/m 0 min 2 min 0 W/m 0,0 km/h (0 Bft) 98,21 %
05.12.2022 17:50 0,3 C 0,0 C -2,2 C 98 % 1020,1 hPa 0,0 l/m 0 min 2 min 0 W/m 0,0 km/h (0 Bft) 97,92 %
05.12.2022 17:52 0,3 C 0,0 C -2,2 C 98 % 1020,1 hPa 0,0 l/m 0 min 2 min 0 W/m 0,0 km/h (0 Bft) 72,97 %
05.12.2022 17:56 0,3 C 0,0 C -2,2 C 98 % 1020,1 hPa 0,0 l/m 0 min 4 min 0 W/m 0,0 km/h (0 Bft) 83,12 %
05.12.2022 17:58 0,3 C 0,0 C -2,2 C 98 % 1020,0 hPa 0,0 l/m 0 min 2 min 0 W/m 0,0 km/h (0 Bft) 95,45 %
05.12.2022 18:00 0,4 C 0,0 C -2,2 C 98 % 1020,0 hPa 0,0 l/m 0 min 0 min 0 W/m 0,0 km/h (0 Bft) 97,87 %
05.12.2022 18:02 0,4 C 0,0 C -2,2 C 98 % 1020,0 hPa 0,0 l/m 0 min 0 min 0 W/m 0,0 km/h (0 Bft) 97,83 %
05.12.2022 18:04 0,4 C 0,0 C -2,2 C 98 % 1020,0 hPa 0,0 l/m 0 min 0 min 0 W/m 0,0 km/h (0 Bft) 97,87 %
05.12.2022 18:08 0,4 C 0,0 C -2,2 C 98 % 1020,1 hPa 0,0 l/m 0 min 0 min 0 W/m 0,0 km/h (0 Bft) 95,74 %
05.12.2022 18:10 0,4 C 0,0 C -2,2 C 98 % 1020,1 hPa 0,0 l/m 0 min 0 min 0 W/m 0,0 km/h (0 Bft) 97,87 %
05.12.2022 18:12 0,4 C 0,0 C -2,2 C 98 % 1020,1 hPa 0,0 l/m 0 min 2 min 0 W/m 0,0 km/h (0 Bft) 96,23 %
05.12.2022 18:14 0,4 C 0,0 C -2,2 C 98 % 1020,1 hPa 0,0 l/m 0 min 0 min 0 W/m 0,0 km/h (0 Bft) 93,48 %
05.12.2022 18:16 0,4 C 0,0 C -2,2 C 98 % 1020,1 hPa 0,0 l/m 0 min 2 min 0 W/m 0,0 km/h (0 Bft) 95,74 %
05.12.2022 18:18 0,4 C 0,0 C -2,2 C 98 % 1020,0 hPa 0,0 l/m 0 min 0 min 0 W/m 0,0 km/h (0 Bft) 95,74 %
05.12.2022 18:20 0,4 C 0,0 C -2,2 C 98 % 1020,1 hPa 0,0 l/m 0 min 2 min 0 W/m 0,0 km/h (0 Bft) 93,62 %
05.12.2022 18:22 0,4 C 0,0 C -2,2 C 98 % 1020,1 hPa 0,0 l/m 0 min 2 min 0 W/m 0,0 km/h (0 Bft) 93,62 %
05.12.2022 18:24 0,4 C 0,0 C -2,2 C 98 % 1020,3 hPa 0,0 l/m 0 min 2 min 0 W/m 0,0 km/h (0 Bft) 97,87 %
05.12.2022 18:26 0,4 C 0,0 C -2,2 C 98 % 1020,1 hPa 0,0 l/m 0 min 2 min 0 W/m 0,0 km/h (0 Bft) 95,65 %
05.12.2022 18:28 0,4 C 0,0 C -2,2 C 98 % 1020,1 hPa 0,0 l/m 0 min 2 min 0 W/m 0,0 km/h (0 Bft) 95,74 %
05.12.2022 18:30 0,4 C 0,0 C -2,2 C 98 % 1020,2 hPa 0,0 l/m 0 min 2 min 0 W/m 0,0 km/h (0 Bft) 95,74 %
05.12.2022 18:32 0,4 C 0,0 C -2,2 C 98 % 1020,2 hPa 0,0 l/m 0 min 2 min 0 W/m 0,0 km/h (0 Bft) 95,74 %
05.12.2022 18:34 0,4 C 0,0 C -2,2 C 98 % 1020,1 hPa 0,0 l/m 0 min 2 min 0 W/m 0,0 km/h (0 Bft) 95,74 %
05.12.2022 18:36 0,4 C 0,0 C -2,2 C 98 % 1020,1 hPa 0,0 l/m 0 min 2 min 0 W/m 3,2 km/h (1 Bft) 95,74 %
05.12.2022 18:38 0,4 C 0,0 C -2,2 C 98 % 1020,1 hPa 0,0 l/m 0 min 2 min 0 W/m 0,0 km/h (0 Bft) 95,65 %
05.12.2022 18:40 0,4 C 0,0 C -2,2 C 98 % 1020,2 hPa 0,0 l/m 0 min 2 min 0 W/m 0,0 km/h (0 Bft) 97,87 %
05.12.2022 18:42 0,4 C 0,0 C -2,2 C 98 % 1020,1 hPa 0,0 l/m 0 min 2 min 0 W/m 0,0 km/h (0 Bft) 100,00 %
05.12.2022 18:44 0,4 C 0,0 C -2,2 C 98 % 1020,2 hPa 0,0 l/m 0 min 2 min 0 W/m 0,0 km/h (0 Bft) 100,00 %
05.12.2022 18:46 0,4 C 0,0 C -2,2 C 98 % 1020,2 hPa 0,0 l/m 0 min 2 min 0 W/m 0,0 km/h (0 Bft) 97,87 %
05.12.2022 18:50 0,4 C 0,0 C -2,2 C 98 % 1020,3 hPa 0,0 l/m 0 min 4 min 0 W/m 0,0 km/h (0 Bft) 100,00 %
05.12.2022 18:55 0,4 C 0,0 C -1,7 C 98 % 1020,3 hPa 0,0 l/m 0 min 0 min 0 W/m 0,0 km/h (0 Bft) 100,00 %
05.12.2022 19:00 0,5 C 0,0 C -1,7 C 98 % 1020,2 hPa 0,0 l/m 0 min 5 min 0 W/m 0,0 km/h (0 Bft) 100,00 %
05.12.2022 19:02 0,5 C 0,0 C -1,7 C 98 % 1020,2 hPa 0,0 l/m 0 min 0 min 0 W/m 0,0 km/h (0 Bft) 98,88 %
05.12.2022 19:04 0,5 C 0,0 C -1,7 C 98 % 1020,2 hPa 0,0 l/m 0 min 0 min 0 W/m 0,0 km/h (0 Bft) 100,00 %
05.12.2022 19:06 0,5 C 0,0 C -1,7 C 98 % 1020,2 hPa 0,0 l/m 0 min 2 min 0 W/m 0,0 km/h (0 Bft) 100,00 %
05.12.2022 19:08 0,5 C 0,0 C -1,7 C 98 % 1020,2 hPa 0,0 l/m 0 min 0 min 0 W/m 0,0 km/h (0 Bft) 100,00 %
05.12.2022 19:10 0,5 C 0,0 C -1,7 C 98 % 1020,2 hPa 0,0 l/m 0 min 2 min 0 W/m 0,0 km/h (0 Bft) 95,74 %
05.12.2022 19:12 0,6 C 0,0 C -1,7 C 98 % 1020,3 hPa 0,0 l/m 0 min 0 min 0 W/m 0,0 km/h (0 Bft) 100,00 %
05.12.2022 19:14 0,6 C 0,0 C -1,7 C 98 % 1020,3 hPa 0,0 l/m 0 min 0 min 0 W/m 0,0 km/h (0 Bft) 100,00 %
05.12.2022 19:16 0,6 C 0,0 C -1,7 C 98 % 1020,3 hPa 0,0 l/m 0 min 0 min 0 W/m 0,0 km/h (0 Bft) 95,74 %
05.12.2022 19:18 0,6 C 0,0 C -1,7 C 98 % 1020,3 hPa 0,0 l/m 0 min 2 min 0 W/m 0,0 km/h (0 Bft) 97,87 %
05.12.2022 19:20 0,6 C 0,0 C -1,7 C 98 % 1020,3 hPa 0,0 l/m 0 min 2 min 0 W/m 0,0 km/h (0 Bft) 97,87 %
05.12.2022 19:22 0,6 C 0,0 C -1,7 C 98 % 1020,4 hPa 0,2 l/m 0 min 0 min 0 W/m 0,0 km/h (0 Bft) 97,87 %
05.12.2022 19:24 0,6 C 0,0 C -1,7 C 98 % 1020,4 hPa 0,0 l/m 0 min 0 min 0 W/m 0,0 km/h (0 Bft) 97,87 %
05.12.2022 19:26 0,6 C 0,0 C -1,7 C 98 % 1020,3 hPa 0,0 l/m 0 min 0 min 0 W/m 0,0 km/h (0 Bft) 97,83 %
05.12.2022 19:28 0,6 C 0,0 C -1,7 C 98 % 1020,3 hPa 0,0 l/m 0 min 0 min 0 W/m 0,0 km/h (0 Bft) 97,87 %
05.12.2022 19:30 0,6 C 0,0 C -1,7 C 98 % 1020,3 hPa 0,0 l/m 0 min 2 min 0 W/m 0,0 km/h (0 Bft) 97,87 %
05.12.2022 19:32 0,6 C 0,0 C -1,7 C 98 % 1020,3 hPa 0,0 l/m 0 min 2 min 0 W/m 0,0 km/h (0 Bft) 95,74 %
05.12.2022 19:34 0,6 C 0,0 C -1,7 C 98 % 1020,3 hPa 0,0 l/m 0 min 2 min 0 W/m 0,0 km/h (0 Bft) 97,87 %
05.12.2022 19:36 0,6 C 0,0 C -1,7 C 98 % 1020,4 hPa 0,0 l/m 0 min 2 min 0 W/m 0,0 km/h (0 Bft) 95,74 %
05.12.2022 19:38 0,6 C 0,0 C -1,7 C 98 % 1020,4 hPa 0,0 l/m 0 min 0 min 0 W/m 0,0 km/h (0 Bft) 97,83 %
05.12.2022 19:40 0,6 C 0,0 C -1,7 C 98 % 1020,4 hPa 0,0 l/m 0 min 0 min 0 W/m 0,0 km/h (0 Bft) 95,74 %
05.12.2022 19:42 0,6 C 0,0 C -1,7 C 98 % 1020,4 hPa 0,0 l/m 0 min 2 min 0 W/m 0,0 km/h (0 Bft) 97,87 %
05.12.2022 19:44 0,6 C 0,0 C -1,7 C 98 % 1020,4 hPa 0,0 l/m 0 min 0 min 0 W/m 0,0 km/h (0 Bft) 97,87 %
05.12.2022 19:46 0,6 C 0,0 C -1,7 C 98 % 1020,4 hPa 0,0 l/m 0 min 0 min 0 W/m 0,0 km/h (0 Bft) 97,87 %
05.12.2022 19:48 0,6 C 0,0 C -1,7 C 98 % 1020,4 hPa 0,0 l/m 0 min 0 min 0 W/m 0,0 km/h (0 Bft) 97,14 %
05.12.2022 19:50 0,6 C 0,0 C -1,7 C 98 % 1020,4 hPa 0,0 l/m 0 min 2 min 0 W/m 0,0 km/h (0 Bft) 95,12 %
05.12.2022 19:52 0,6 C 0,0 C -1,7 C 98 % 1020,4 hPa 0,0 l/m 0 min 2 min 0 W/m 0,0 km/h (0 Bft) 93,10 %
05.12.2022 19:54 0,6 C 0,0 C -1,7 C 98 % 1020,4 hPa 0,0 l/m 0 min 0 min 0 W/m 0,0 km/h (0 Bft) 97,87 %
05.12.2022 19:56 0,6 C 0,0 C -1,7 C 98 % 1020,4 hPa 0,0 l/m 0 min 0 min 0 W/m 0,0 km/h (0 Bft) 93,62 %
05.12.2022 19:58 0,6 C 0,0 C -1,7 C 98 % 1020,4 hPa 0,0 l/m 0 min 0 min 0 W/m 0,0 km/h (0 Bft) 95,74 %
05.12.2022 20:00 0,6 C 0,0 C -1,7 C 98 % 1020,4 hPa 0,0 l/m 0 min 0 min 0 W/m 0,0 km/h (0 Bft) 93,48 %
05.12.2022 20:02 0,6 C 0,0 C -1,7 C 98 % 1020,4 hPa 0,0 l/m 0 min 0 min 0 W/m 0,0 km/h (0 Bft) 91,49 %
05.12.2022 20:04 0,6 C 0,0 C -1,7 C 98 % 1020,5 hPa 0,0 l/m 0 min 0 min 0 W/m 0,0 km/h (0 Bft) 93,62 %
05.12.2022 20:06 0,6 C 0,0 C -1,7 C 98 % 1020,5 hPa 0,0 l/m 0 min 0 min 0 W/m 0,0 km/h (0 Bft) 95,74 %
05.12.2022 20:08 0,6 C 0,0 C -1,7 C 98 % 1020,5 hPa 0,0 l/m 0 min 0 min 0 W/m 0,0 km/h (0 Bft) 95,74 %
05.12.2022 20:10 0,6 C 0,0 C -1,7 C 98 % 1020,5 hPa 0,0 l/m 0 min 2 min 0 W/m 0,0 km/h (0 Bft) 91,49 %
05.12.2022 20:12 0,6 C 0,0 C -1,7 C 98 % 1020,5 hPa 0,0 l/m 0 min 2 min 0 W/m 0,0 km/h (0 Bft) 91,49 %
05.12.2022 20:14 0,6 C 0,0 C -1,7 C 98 % 1020,6 hPa 0,0 l/m 0 min 2 min 0 W/m 0,0 km/h (0 Bft) 93,48 %
05.12.2022 20:16 0,6 C 0,0 C -1,7 C 98 % 1020,6 hPa 0,0 l/m 0 min 2 min 0 W/m 0,0 km/h (0 Bft) 89,36 %
05.12.2022 20:18 0,6 C 0,0 C -1,7 C 98 % 1020,6 hPa 0,0 l/m 0 min 0 min 0 W/m 0,0 km/h (0 Bft) 93,62 %
05.12.2022 20:20 0,6 C 0,0 C -1,7 C 98 % 1020,7 hPa 0,0 l/m 0 min 2 min 0 W/m 0,0 km/h (0 Bft) 95,74 %
05.12.2022 20:22 0,6 C 0,0 C -1,7 C 98 % 1020,7 hPa 0,0 l/m 0 min 2 min 0 W/m 0,0 km/h (0 Bft) 95,74 %
05.12.2022 20:24 0,6 C 0,0 C -1,7 C 98 % 1020,7 hPa 0,0 l/m 0 min 2 min 0 W/m 0,0 km/h (0 Bft) 93,48 %
05.12.2022 20:26 0,6 C 0,0 C -1,7 C 98 % 1020,7 hPa 0,0 l/m 0 min 2 min 0 W/m 0,0 km/h (0 Bft) 95,74 %
05.12.2022 20:28 0,7 C 0,6 C -1,7 C 98 % 1020,7 hPa 0,0 l/m 0 min 2 min 0 W/m 0,0 km/h (0 Bft) 97,87 %
05.12.2022 20:30 0,7 C 0,6 C -1,7 C 98 % 1020,8 hPa 0,0 l/m 0 min 2 min 0 W/m 0,0 km/h (0 Bft) 97,87 %
05.12.2022 20:32 0,7 C 0,6 C -1,7 C 98 % 1020,8 hPa 0,0 l/m 0 min 2 min 0 W/m 0,0 km/h (0 Bft) 95,74 %
05.12.2022 20:34 0,8 C 0,6 C -1,7 C 98 % 1020,8 hPa 0,0 l/m 0 min 2 min 0 W/m 0,0 km/h (0 Bft) 97,87 %
05.12.2022 20:36 0,8 C 0,6 C -1,7 C 98 % 1020,8 hPa 0,0 l/m 0 min 2 min 0 W/m 0,0 km/h (0 Bft) 97,83 %
05.12.2022 20:38 0,8 C 0,6 C -1,1 C 98 % 1020,8 hPa 0,0 l/m 0 min 2 min 0 W/m 0,0 km/h (0 Bft) 97,87 %
05.12.2022 20:40 0,9 C 0,6 C -1,7 C 98 % 1020,8 hPa 0,0 l/m 0 min 2 min 0 W/m 0,0 km/h (0 Bft) 100,00 %
05.12.2022 20:42 0,9 C 0,6 C -1,7 C 98 % 1020,8 hPa 0,0 l/m 0 min 2 min 0 W/m 0,0 km/h (0 Bft) 93,62 %
05.12.2022 20:44 1,0 C 0,6 C -1,7 C 98 % 1020,8 hPa 0,0 l/m 0 min 2 min 0 W/m 0,0 km/h (0 Bft) 97,87 %
05.12.2022 20:46 1,0 C 0,6 C -1,7 C 98 % 1020,8 hPa 0,0 l/m 0 min 2 min 0 W/m 0,0 km/h (0 Bft) 97,87 %
05.12.2022 20:48 1,1 C 0,6 C -1,7 C 98 % 1020,8 hPa 0,0 l/m 0 min 2 min 0 W/m 0,0 km/h (0 Bft) 97,83 %
05.12.2022 20:50 1,1 C 0,6 C -1,7 C 98 % 1020,8 hPa 0,0 l/m 0 min 0 min 0 W/m 0,0 km/h (0 Bft) 97,87 %
05.12.2022 20:52 1,1 C 0,6 C -1,1 C 98 % 1020,8 hPa 0,0 l/m 0 min 2 min 0 W/m 0,0 km/h (0 Bft) 100,00 %
05.12.2022 20:54 1,1 C 0,6 C -1,1 C 98 % 1020,8 hPa 0,0 l/m 0 min 0 min 0 W/m 0,0 km/h (0 Bft) 100,00 %
05.12.2022 20:56 1,1 C 0,6 C -1,7 C 98 % 1020,8 hPa 0,2 l/m 0 min 2 min 0 W/m 0,0 km/h (0 Bft) 100,00 %
05.12.2022 20:58 1,1 C 0,6 C -1,1 C 98 % 1020,8 hPa 0,0 l/m 0 min 0 min 0 W/m 0,0 km/h (0 Bft) 100,00 %
05.12.2022 21:00 1,1 C 0,6 C -1,1 C 98 % 1020,7 hPa 0,0 l/m 0 min 0 min 0 W/m 0,0 km/h (0 Bft) 97,83 %
05.12.2022 21:02 1,2 C 0,6 C -1,1 C 98 % 1020,7 hPa 0,0 l/m 0 min 2 min 0 W/m 0,0 km/h (0 Bft) 100,00 %
05.12.2022 21:04 1,2 C 0,6 C -1,7 C 98 % 1020,7 hPa 0,0 l/m 0 min 0 min 0 W/m 0,0 km/h (0 Bft) 100,00 %
05.12.2022 21:06 1,2 C 0,6 C -1,7 C 98 % 1020,7 hPa 0,0 l/m 0 min 0 min 0 W/m 0,0 km/h (0 Bft) 97,87 %
05.12.2022 21:08 1,2 C 0,6 C -1,7 C 98 % 1020,7 hPa 0,0 l/m 0 min 0 min 0 W/m 0,0 km/h (0 Bft) 100,00 %
05.12.2022 21:10 1,2 C 0,6 C -1,7 C 98 % 1020,7 hPa 0,0 l/m 0 min 0 min 0 W/m 0,0 km/h (0 Bft) 100,00 %
05.12.2022 21:12 1,3 C 0,6 C -1,7 C 98 % 1020,7 hPa 0,0 l/m 0 min 2 min 0 W/m 0,0 km/h (0 Bft) 100,00 %
05.12.2022 21:14 1,2 C 0,6 C -1,7 C 98 % 1020,7 hPa 0,0 l/m 0 min 0 min 0 W/m 0,0 km/h (0 Bft) 100,00 %
05.12.2022 21:16 1,3 C 0,6 C -1,7 C 98 % 1020,7 hPa 0,0 l/m 0 min 2 min 0 W/m 0,0 km/h (0 Bft) 100,00 %
05.12.2022 21:18 1,3 C 0,6 C -1,1 C 98 % 1020,6 hPa 0,0 l/m 0 min 0 min 0 W/m 0,0 km/h (0 Bft) 100,00 %
05.12.2022 21:20 1,2 C 0,6 C -1,1 C 98 % 1020,7 hPa 0,0 l/m 0 min 0 min 0 W/m 0,0 km/h (0 Bft) 100,00 %
05.12.2022 21:22 1,3 C 0,6 C -1,1 C 98 % 1020,7 hPa 0,2 l/m 0 min 0 min 0 W/m 0,0 km/h (0 Bft) 100,00 %
05.12.2022 21:24 1,3 C 0,6 C -1,1 C 98 % 1020,7 hPa 0,0 l/m 0 min 2 min 0 W/m 3,2 km/h (1 Bft) 100,00 %
05.12.2022 21:26 1,3 C 0,6 C -1,1 C 98 % 1020,7 hPa 0,0 l/m 0 min 2 min 0 W/m 0,0 km/h (0 Bft) 97,87 %
05.12.2022 21:28 1,2 C 0,6 C -1,1 C 98 % 1020,7 hPa 0,0 l/m 0 min 2 min 0 W/m 0,0 km/h (0 Bft) 100,00 %
05.12.2022 21:30 1,2 C 0,6 C -1,1 C 98 % 1020,6 hPa 0,0 l/m 0 min 2 min 0 W/m 0,0 km/h (0 Bft) 100,00 %
05.12.2022 21:32 1,2 C 0,6 C -1,1 C 98 % 1020,6 hPa 0,0 l/m 0 min 2 min 0 W/m 3,2 km/h (1 Bft) 97,87 %
05.12.2022 21:34 1,2 C 0,6 C -1,1 C 98 % 1020,6 hPa 0,0 l/m 0 min 0 min 0 W/m 0,0 km/h (0 Bft) 100,00 %
05.12.2022 21:36 1,2 C 0,6 C -1,1 C 98 % 1020,6 hPa 0,0 l/m 0 min 2 min 0 W/m 3,2 km/h (1 Bft) 100,00 %
05.12.2022 21:38 1,2 C 0,6 C -1,1 C 98 % 1020,6 hPa 0,0 l/m 0 min 0 min 0 W/m 3,2 km/h (1 Bft) 97,87 %
05.12.2022 21:40 1,2 C 0,6 C -1,1 C 98 % 1020,6 hPa 0,0 l/m 0 min 0 min 0 W/m 3,2 km/h (1 Bft) 97,87 %
05.12.2022 21:42 1,2 C 0,6 C -1,1 C 98 % 1020,7 hPa 0,0 l/m 0 min 0 min 0 W/m 0,0 km/h (0 Bft) 97,87 %
05.12.2022 21:44 1,2 C 0,6 C -1,1 C 98 % 1020,7 hPa 0,0 l/m 0 min 0 min 0 W/m 0,0 km/h (0 Bft) 97,87 %
05.12.2022 21:46 1,2 C 0,6 C -1,1 C 98 % 1020,6 hPa 0,0 l/m 0 min 0 min 0 W/m 0,0 km/h (0 Bft) 97,87 %
05.12.2022 21:48 1,1 C 0,6 C -1,1 C 98 % 1020,6 hPa 0,0 l/m 0 min 0 min 0 W/m 0,0 km/h (0 Bft) 97,83 %
05.12.2022 21:50 1,1 C 0,6 C -1,1 C 98 % 1020,6 hPa 0,0 l/m 0 min 0 min 0 W/m 0,0 km/h (0 Bft) 95,74 %
05.12.2022 21:52 1,1 C 0,6 C -1,1 C 98 % 1020,6 hPa 0,0 l/m 0 min 0 min 0 W/m 0,0 km/h (0 Bft) 97,87 %
05.12.2022 21:54 1,1 C 0,6 C -1,1 C 98 % 1020,6 hPa 0,2 l/m 0 min 0 min 0 W/m 0,0 km/h (0 Bft) 97,87 %
05.12.2022 21:56 1,1 C 0,6 C -1,1 C 98 % 1020,5 hPa 0,0 l/m 0 min 0 min 0 W/m 0,0 km/h (0 Bft) 95,74 %
05.12.2022 21:58 1,1 C 0,6 C -1,1 C 98 % 1020,5 hPa 0,0 l/m 0 min 0 min 0 W/m 0,0 km/h (0 Bft) 97,87 %
05.12.2022 22:00 1,1 C 0,6 C -1,1 C 98 % 1020,5 hPa 0,0 l/m 0 min 0 min 0 W/m 0,0 km/h (0 Bft) 97,83 %
05.12.2022 22:02 1,1 C 0,6 C -1,1 C 98 % 1020,6 hPa 0,0 l/m 0 min 0 min 0 W/m 0,0 km/h (0 Bft) 95,74 %
05.12.2022 22:04 1,1 C 0,6 C -1,1 C 98 % 1020,6 hPa 0,0 l/m 0 min 0 min 0 W/m 0,0 km/h (0 Bft) 97,87 %
05.12.2022 22:06 1,1 C 0,6 C -1,1 C 98 % 1020,5 hPa 0,0 l/m 0 min 0 min 0 W/m 0,0 km/h (0 Bft) 100,00 %
05.12.2022 22:08 1,1 C 0,6 C -1,1 C 98 % 1020,5 hPa 0,0 l/m 0 min 0 min 0 W/m 0,0 km/h (0 Bft) 100,00 %
05.12.2022 22:10 1,1 C 0,6 C -1,1 C 98 % 1020,5 hPa 0,0 l/m 0 min 0 min 0 W/m 0,0 km/h (0 Bft) 100,00 %
05.12.2022 22:12 1,1 C 0,6 C -1,1 C 98 % 1020,5 hPa 0,0 l/m 0 min 0 min 0 W/m 0,0 km/h (0 Bft) 100,00 %
05.12.2022 22:14 1,1 C 0,6 C -1,1 C 98 % 1020,5 hPa 0,0 l/m 0 min 0 min 0 W/m 0,0 km/h (0 Bft) 95,74 %
05.12.2022 22:16 1,1 C 0,6 C -1,1 C 98 % 1020,5 hPa 0,0 l/m 0 min 0 min 0 W/m 0,0 km/h (0 Bft) 97,87 %
05.12.2022 22:18 1,1 C 0,6 C -1,1 C 98 % 1020,5 hPa 0,0 l/m 0 min 0 min 0 W/m 0,0 km/h (0 Bft) 100,00 %
05.12.2022 22:20 1,1 C 0,6 C -1,1 C 98 % 1020,5 hPa 0,2 l/m 0 min 0 min 0 W/m 0,0 km/h (0 Bft) 97,87 %
05.12.2022 22:22 1,1 C 0,6 C -1,1 C 98 % 1020,5 hPa 0,0 l/m 0 min 0 min 0 W/m 0,0 km/h (0 Bft) 97,83 %
05.12.2022 22:24 1,2 C 0,6 C -1,1 C 98 % 1020,4 hPa 0,0 l/m 0 min 0 min 0 W/m 0,0 km/h (0 Bft) 100,00 %
05.12.2022 22:26 1,2 C 0,6 C -1,1 C 98 % 1020,5 hPa 0,0 l/m 0 min 0 min 0 W/m 0,0 km/h (0 Bft) 100,00 %
05.12.2022 22:28 1,2 C 0,6 C -1,1 C 98 % 1020,5 hPa 0,0 l/m 0 min 0 min 0 W/m 0,0 km/h (0 Bft) 100,00 %
05.12.2022 22:30 1,2 C 0,6 C -1,1 C 98 % 1020,5 hPa 0,0 l/m 0 min 0 min 0 W/m 0,0 km/h (0 Bft) 97,87 %
05.12.2022 22:32 1,1 C 0,6 C -1,1 C 98 % 1020,5 hPa 0,0 l/m 0 min 0 min 0 W/m 0,0 km/h (0 Bft) 97,87 %
05.12.2022 22:34 1,1 C 0,6 C -1,1 C 98 % 1020,4 hPa 0,0 l/m 0 min 0 min 0 W/m 0,0 km/h (0 Bft) 95,65 %
05.12.2022 22:36 1,1 C 0,6 C -1,1 C 98 % 1020,5 hPa 0,0 l/m 0 min 0 min 0 W/m 0,0 km/h (0 Bft) 97,87 %
05.12.2022 22:38 1,1 C 0,6 C -1,1 C 98 % 1020,4 hPa 0,0 l/m 0 min 0 min 0 W/m 0,0 km/h (0 Bft) 97,87 %
05.12.2022 22:40 1,2 C 0,6 C -1,1 C 98 % 1020,4 hPa 0,0 l/m 0 min 0 min 0 W/m 0,0 km/h (0 Bft) 97,87 %
05.12.2022 22:42 1,2 C 0,6 C -1,1 C 98 % 1020,5 hPa 0,0 l/m 0 min 0 min 0 W/m 0,0 km/h (0 Bft) 97,87 %
05.12.2022 22:44 1,2 C 0,6 C -1,1 C 98 % 1020,4 hPa 0,0 l/m 0 min 0 min 0 W/m 0,0 km/h (0 Bft) 93,62 %
05.12.2022 22:46 1,2 C 0,6 C -1,1 C 98 % 1020,5 hPa 0,0 l/m 0 min 0 min 0 W/m 0,0 km/h (0 Bft) 97,83 %
05.12.2022 22:48 1,2 C 0,6 C -1,1 C 98 % 1020,5 hPa 0,0 l/m 0 min 0 min 0 W/m 0,0 km/h (0 Bft) 95,74 %
05.12.2022 22:50 1,2 C 0,6 C -1,1 C 98 % 1020,5 hPa 0,0 l/m 0 min 0 min 0 W/m 0,0 km/h (0 Bft) 97,87 %
05.12.2022 22:52 1,2 C 0,6 C -1,1 C 98 % 1020,5 hPa 0,0 l/m 0 min 0 min 0 W/m 0,0 km/h (0 Bft) 95,74 %
05.12.2022 22:54 1,2 C 1,1 C -1,1 C 98 % 1020,5 hPa 0,0 l/m 0 min 0 min 0 W/m 0,0 km/h (0 Bft) 97,87 %
05.12.2022 22:56 1,2 C 0,6 C -1,1 C 98 % 1020,5 hPa 0,0 l/m 0 min 0 min 0 W/m 0,0 km/h (0 Bft) 93,62 %
05.12.2022 22:58 1,2 C 0,6 C -1,1 C 98 % 1020,5 hPa 0,0 l/m 0 min 0 min 0 W/m 0,0 km/h (0 Bft) 95,12 %
05.12.2022 23:00 1,3 C 0,6 C -1,1 C 98 % 1020,5 hPa 0,2 l/m 0 min 0 min 0 W/m 0,0 km/h (0 Bft) 95,65 %
05.12.2022 23:02 1,3 C 1,1 C -1,1 C 98 % 1020,5 hPa 0,0 l/m 0 min 0 min 0 W/m 0,0 km/h (0 Bft) 92,45 %
05.12.2022 23:04 1,3 C 1,1 C -1,1 C 98 % 1020,5 hPa 0,0 l/m 0 min 0 min 0 W/m 0,0 km/h (0 Bft) 95,74 %
05.12.2022 23:06 1,3 C 1,1 C -1,1 C 98 % 1020,6 hPa 0,0 l/m 0 min 0 min 0 W/m 0,0 km/h (0 Bft) 95,74 %
05.12.2022 23:08 1,3 C 1,1 C -1,1 C 98 % 1020,5 hPa 0,0 l/m 0 min 0 min 0 W/m 0,0 km/h (0 Bft) 92,11 %
05.12.2022 23:10 1,3 C 1,1 C -1,1 C 98 % 1020,5 hPa 0,0 l/m 0 min 0 min 0 W/m 0,0 km/h (0 Bft) 95,74 %
05.12.2022 23:12 1,3 C 1,1 C -1,1 C 98 % 1020,6 hPa 0,0 l/m 0 min 0 min 0 W/m 0,0 km/h (0 Bft) 97,83 %
05.12.2022 23:14 1,3 C 1,1 C -1,1 C 98 % 1020,5 hPa 0,0 l/m 0 min 0 min 0 W/m 0,0 km/h (0 Bft) 95,74 %
05.12.2022 23:16 1,3 C 1,1 C -1,1 C 98 % 1020,5 hPa 0,0 l/m 0 min 2 min 0 W/m 0,0 km/h (0 Bft) 93,62 %
05.12.2022 23:18 1,3 C 1,1 C -1,1 C 98 % 1020,5 hPa 0,0 l/m 0 min 0 min 0 W/m 0,0 km/h (0 Bft) 97,87 %
05.12.2022 23:20 1,3 C 1,1 C -1,1 C 98 % 1020,5 hPa 0,0 l/m 0 min 0 min 0 W/m 0,0 km/h (0 Bft) 95,74 %
05.12.2022 23:22 1,3 C 1,1 C -1,1 C 98 % 1020,5 hPa 0,0 l/m 0 min 0 min 0 W/m 0,0 km/h (0 Bft) 95,74 %
05.12.2022 23:24 1,4 C 1,1 C -1,1 C 98 % 1020,5 hPa 0,2 l/m 0 min 0 min 0 W/m 0,0 km/h (0 Bft) 95,65 %
05.12.2022 23:26 1,4 C 1,1 C -1,1 C 99 % 1020,5 hPa 0,0 l/m 0 min 0 min 0 W/m 0,0 km/h (0 Bft) 93,62 %
05.12.2022 23:28 1,4 C 1,1 C -1,1 C 99 % 1020,5 hPa 0,0 l/m 0 min 0 min 0 W/m 0,0 km/h (0 Bft) 95,74 %
05.12.2022 23:30 1,4 C 1,1 C -1,1 C 98 % 1020,5 hPa 0,0 l/m 0 min 0 min 0 W/m 0,0 km/h (0 Bft) 95,74 %
05.12.2022 23:32 1,4 C 1,1 C -1,1 C 98 % 1020,5 hPa 0,0 l/m 0 min 0 min 0 W/m 0,0 km/h (0 Bft) 95,74 %
05.12.2022 23:34 1,4 C 1,1 C -1,1 C 99 % 1020,6 hPa 0,0 l/m 0 min 0 min 0 W/m 0,0 km/h (0 Bft) 95,74 %
05.12.2022 23:36 1,4 C 1,1 C -1,1 C 99 % 1020,5 hPa 0,0 l/m 0 min 0 min 0 W/m 0,0 km/h (0 Bft) 95,74 %
05.12.2022 23:38 1,4 C 1,1 C -1,1 C 99 % 1020,5 hPa 0,0 l/m 0 min 0 min 0 W/m 0,0 km/h (0 Bft) 93,48 %
05.12.2022 23:40 1,4 C 1,1 C -1,1 C 99 % 1020,5 hPa 0,0 l/m 0 min 2 min 0 W/m 0,0 km/h (0 Bft) 93,62 %
05.12.2022 23:42 1,4 C 1,1 C -1,1 C 99 % 1020,5 hPa 0,0 l/m 0 min 0 min 0 W/m 0,0 km/h (0 Bft) 93,62 %
05.12.2022 23:44 1,4 C 1,1 C -1,1 C 99 % 1020,5 hPa 0,0 l/m 0 min 0 min 0 W/m 0,0 km/h (0 Bft) 93,62 %
05.12.2022 23:46 1,4 C 1,1 C -1,1 C 99 % 1020,5 hPa 0,0 l/m 0 min 0 min 0 W/m 0,0 km/h (0 Bft) 93,62 %
05.12.2022 23:48 1,4 C 1,1 C -1,1 C 99 % 1020,5 hPa 0,0 l/m 0 min 0 min 0 W/m 0,0 km/h (0 Bft) 93,48 %
05.12.2022 23:50 1,4 C 1,1 C -1,1 C 99 % 1020,5 hPa 0,0 l/m 0 min 0 min 0 W/m 0,0 km/h (0 Bft) 95,74 %
05.12.2022 23:52 1,4 C 1,1 C -1,1 C 99 % 1020,5 hPa 0,2 l/m 0 min 0 min 0 W/m 0,0 km/h (0 Bft) 95,74 %
05.12.2022 23:54 1,4 C 1,1 C -1,1 C 99 % 1020,4 hPa 0,0 l/m 0 min 0 min 0 W/m 0,0 km/h (0 Bft) 97,87 %
05.12.2022 23:56 1,4 C 1,1 C -1,1 C 99 % 1020,4 hPa 0,0 l/m 0 min 0 min 0 W/m 0,0 km/h (0 Bft) 100,00 %
05.12.2022 23:58 1,4 C 1,1 C -0,6 C 99 % 1020,4 hPa 0,0 l/m 0 min 0 min 0 W/m 0,0 km/h (0 Bft) 95,74 %
_ Min-Zeit 16:30 16:22 16:12 00:00 00:50 - - - - 03:52 13:18
Minimum _ 0,3 C -0,6 C -2,8 C 94 % 1017,0 hPa - - - - 0,0 km/h (0 Bft) 48,78 %
_ Max-Zeit 05:14 04:12 01:30 23:26 20:30 06:20 00:00 06:00 10:56 00:02 00:50
Maximum _ 2,5 C 2,2 C -0,6 C 99 % 1020,8 hPa 0,2 l/m 0 min 5 min 80 W/m 12,9 km/h
O (3 Bft)
100,00 %
Durchschnitt _ 1,5 C 1,1 C -1,3 C 97 % 1019,0 hPa #6,8 l/m #0 min. #13:43 h 38 W/m 1,8 km/h (1 Bft) 96,90 %
© 2022 W. Hausmann